Time,TemperatureF,DewpointF,PressureIn,WindDirection,WindDirectionDegrees,WindSpeedMPH,WindSpeedGustMPH,Humidity,HourlyPrecipIn,Conditions,Clouds,dailyrainin,SoftwareType,DateUTC
2013-11-11 00:00:00,43.4,43.4,30.29,NNW,339,0.0,0.0,100,0.00,CLR,,0.00,WeatherDisplay:10.37,2013-11-11 05:00:00,
2013-11-11 00:01:00,43.4,43.4,30.29,NNW,339,0.0,0.0,100,0.00,CLR,,0.00,WeatherDisplay:10.37,2013-11-11 05:01:00,
2013-11-11 00:02:00,43.4,43.4,30.29,NNW,339,0.0,0.0,100,0.00,CLR,,0.00,WeatherDisplay:10.37,2013-11-11 05:02:00,
2013-11-11 00:06:00,43.1,43.1,30.29,NNW,339,0.0,0.0,100,0.00,CLR,,0.00,WeatherDisplay:10.37,2013-11-11 05:06:00,
2013-11-11 00:07:00,43.1,43.1,30.29,NNW,339,0.0,0.0,100,0.00,CLR,,0.00,WeatherDisplay:10.37,2013-11-11 05:07:00,
2013-11-11 00:08:00,43.1,43.1,30.29,NNW,339,0.0,0.0,100,0.00,CLR,,0.00,WeatherDisplay:10.37,2013-11-11 05:08:00,
2013-11-11 00:11:00,43.0,43.0,30.29,NNW,339,0.0,0.0,100,0.00,CLR,,0.00,WeatherDisplay:10.37,2013-11-11 05:11:00,
2013-11-11 00:12:00,42.7,42.7,30.29,NNW,339,0.0,0.0,100,0.00,CLR,,0.00,WeatherDisplay:10.37,2013-11-11 05:12:00,
2013-11-11 00:13:00,42.6,42.6,30.29,NNW,339,0.0,0.0,100,0.00,CLR,,0.00,WeatherDisplay:10.37,2013-11-11 05:13:00,
2013-11-11 00:16:00,42.4,42.4,30.29,NNW,339,0.0,0.0,100,0.00,CLR,,0.00,WeatherDisplay:10.37,2013-11-11 05:16:00,
2013-11-11 00:17:00,42.4,42.4,30.29,NNW,339,0.0,0.0,100,0.00,CLR,,0.00,WeatherDisplay:10.37,2013-11-11 05:17:00,
2013-11-11 00:19:00,42.4,42.4,30.29,NNW,339,0.0,0.0,100,0.00,CLR,,0.00,WeatherDisplay:10.37,2013-11-11 05:19:00,
2013-11-11 00:21:00,42.1,42.1,30.29,NNW,339,0.0,0.0,100,0.00,CLR,,0.00,WeatherDisplay:10.37,2013-11-11 05:21:00,
2013-11-11 00:22:00,42.1,42.1,30.29,NNW,339,0.0,0.0,100,0.00,CLR,,0.00,WeatherDisplay:10.37,2013-11-11 05:22:00,
2013-11-11 00:25:00,42.0,42.0,30.29,NNW,339,0.0,0.0,100,0.00,CLR,,0.00,WeatherDisplay:10.37,2013-11-11 05:25:00,
2013-11-11 00:27:00,42.0,42.0,30.29,NNW,339,0.0,0.0,100,0.00,CLR,,0.00,WeatherDisplay:10.37,2013-11-11 05:27:00,
2013-11-11 00:30:00,41.8,41.8,30.29,NNW,339,0.0,0.0,100,0.00,CLR,,0.00,WeatherDisplay:10.37,2013-11-11 05:30:00,
2013-11-11 00:32:00,41.6,41.6,30.29,NNW,339,0.0,0.0,100,0.00,CLR,,0.00,WeatherDisplay:10.37,2013-11-11 05:32:00,
2013-11-11 00:33:00,41.7,41.7,30.29,NNW,339,0.0,0.0,100,0.00,CLR,,0.00,WeatherDisplay:10.37,2013-11-11 05:33:00,
2013-11-11 00:35:00,41.7,41.7,30.29,NNW,339,0.0,0.0,100,0.00,CLR,,0.00,WeatherDisplay:10.37,2013-11-11 05:35:00,
2013-11-11 00:37:00,41.7,41.7,30.29,NNW,339,0.0,0.0,100,0.00,CLR,,0.00,WeatherDisplay:10.37,2013-11-11 05:37:00,
2013-11-11 00:38:00,41.7,41.7,30.29,NNW,339,0.0,0.0,100,0.00,CLR,,0.00,WeatherDisplay:10.37,2013-11-11 05:38:00,
2013-11-11 00:40:00,41.7,41.7,30.29,NNW,339,0.0,0.0,100,0.00,CLR,,0.00,WeatherDisplay:10.37,2013-11-11 05:40:00,
2013-11-11 00:42:00,41.7,41.7,30.29,NNW,339,0.0,0.0,100,0.00,CLR,,0.00,WeatherDisplay:10.37,2013-11-11 05:42:00,
2013-11-11 00:43:00,41.7,41.7,30.29,NNW,339,0.0,0.0,100,0.00,CLR,,0.00,WeatherDisplay:10.37,2013-11-11 05:43:00,
2013-11-11 00:46:00,41.6,41.6,30.29,NNW,339,0.0,0.0,100,0.00,CLR,,0.00,WeatherDisplay:10.37,2013-11-11 05:46:00,
2013-11-11 00:47:00,41.5,41.5,30.29,NNW,339,0.0,0.0,100,0.00,CLR,,0.00,WeatherDisplay:10.37,2013-11-11 05:47:00,
2013-11-11 00:48:00,41.4,41.4,30.29,NNW,339,0.0,0.0,100,0.00,CLR,,0.00,WeatherDisplay:10.37,2013-11-11 05:48:00,
2013-11-11 00:49:00,41.3,41.3,30.29,NNW,339,0.0,0.0,100,0.00,CLR,,0.00,WeatherDisplay:10.37,2013-11-11 05:49:00,
2013-11-11 00:51:00,41.2,41.2,30.29,NNW,339,0.0,0.0,100,0.00,CLR,,0.00,WeatherDisplay:10.37,2013-11-11 05:51:00,
2013-11-11 00:52:00,41.2,41.2,30.29,NNW,339,0.0,0.0,100,0.00,CLR,,0.00,WeatherDisplay:10.37,2013-11-11 05:52:00,
2013-11-11 00:53:00,41.1,41.1,30.29,NNW,339,0.0,0.0,100,0.00,CLR,,0.00,WeatherDisplay:10.37,2013-11-11 05:53:00,
2013-11-11 00:54:00,41.1,41.1,30.29,NNW,339,0.0,0.0,100,0.00,CLR,,0.00,WeatherDisplay:10.37,2013-11-11 05:54:00,
2013-11-11 00:55:00,41.1,41.1,30.29,NNW,339,0.0,0.0,100,0.00,CLR,,0.00,WeatherDisplay:10.37,2013-11-11 05:55:00,
2013-11-11 00:57:00,41.0,41.0,30.29,NNW,339,0.0,0.0,100,0.00,CLR,,0.00,WeatherDisplay:10.37,2013-11-11 05:57:00,
2013-11-11 00:58:00,41.0,41.0,30.29,NNW,339,0.0,0.0,100,0.00,CLR,,0.00,WeatherDisplay:10.37,2013-11-11 05:58:00,
2013-11-11 00:59:00,41.0,41.0,30.29,NNW,339,0.0,0.0,100,0.00,CLR,,0.00,WeatherDisplay:10.37,2013-11-11 05:59:00,
2013-11-11 01:00:00,41.0,41.0,30.29,NNW,339,0.0,0.0,100,0.00,CLR,,0.00,WeatherDisplay:10.37,2013-11-11 06:00:00,
2013-11-11 01:02:00,40.9,40.9,30.29,NNW,339,0.0,0.0,100,0.00,CLR,,0.00,WeatherDisplay:10.37,2013-11-11 06:02:00,
2013-11-11 01:03:00,40.9,40.9,30.29,NNW,339,0.0,0.0,100,0.00,CLR,,0.00,WeatherDisplay:10.37,2013-11-11 06:03:00,
2013-11-11 01:04:00,40.9,40.9,30.29,NNW,339,0.0,0.0,100,0.00,CLR,,0.00,WeatherDisplay:10.37,2013-11-11 06:04:00,
2013-11-11 01:05:00,40.9,40.9,30.29,NNW,339,0.0,0.0,100,0.00,CLR,,0.00,WeatherDisplay:10.37,2013-11-11 06:05:00,
2013-11-11 01:07:00,40.8,40.8,30.29,NNW,339,0.0,0.0,100,0.00,CLR,,0.00,WeatherDisplay:10.37,2013-11-11 06:07:00,
2013-11-11 01:08:00,40.7,40.7,30.29,NNW,339,0.0,0.0,100,0.00,CLR,,0.00,WeatherDisplay:10.37,2013-11-11 06:08:00,
2013-11-11 01:09:00,40.7,40.7,30.29,NNW,339,0.0,0.0,100,0.00,CLR,,0.00,WeatherDisplay:10.37,2013-11-11 06:09:00,
2013-11-11 01:10:00,40.6,40.6,30.29,NNW,339,0.0,0.0,100,0.00,CLR,,0.00,WeatherDisplay:10.37,2013-11-11 06:10:00,
2013-11-11 01:11:00,40.6,40.6,30.29,NNW,339,0.0,0.0,100,0.00,CLR,,0.00,WeatherDisplay:10.37,2013-11-11 06:11:00,
2013-11-11 01:13:00,40.5,40.5,30.29,NNW,339,0.0,0.0,100,0.00,CLR,,0.00,WeatherDisplay:10.37,2013-11-11 06:13:00,
2013-11-11 01:14:00,40.5,40.5,30.29,NNW,339,0.0,0.0,100,0.00,CLR,,0.00,WeatherDisplay:10.37,2013-11-11 06:14:00,
2013-11-11 01:16:00,40.5,40.5,30.29,NNW,339,0.0,0.0,100,0.00,CLR,,0.00,WeatherDisplay:10.37,2013-11-11 06:16:00,
2013-11-11 01:18:00,40.4,40.4,30.28,NNW,339,0.0,0.0,100,0.00,CLR,,0.00,WeatherDisplay:10.37,2013-11-11 06:18:00,
2013-11-11 01:19:00,40.4,40.4,30.29,NNW,339,0.0,0.0,100,0.00,CLR,,0.00,WeatherDisplay:10.37,2013-11-11 06:19:00,
2013-11-11 01:21:00,40.2,40.2,30.29,NNW,339,0.0,0.0,100,0.00,CLR,,0.00,WeatherDisplay:10.37,2013-11-11 06:21:00,
2013-11-11 01:22:00,40.2,40.2,30.29,NNW,339,0.0,0.0,100,0.00,CLR,,0.00,WeatherDisplay:10.37,2013-11-11 06:22:00,
2013-11-11 01:23:00,40.1,40.1,30.29,NNW,339,0.0,0.0,100,0.00,CLR,,0.00,WeatherDisplay:10.37,2013-11-11 06:23:00,
2013-11-11 01:24:00,40.2,40.2,30.29,NNW,339,0.0,0.0,100,0.00,CLR,,0.00,WeatherDisplay:10.37,2013-11-11 06:24:00,
2013-11-11 01:25:00,40.1,40.1,30.28,NNW,339,0.0,0.0,100,0.00,CLR,,0.00,WeatherDisplay:10.37,2013-11-11 06:25:00,
2013-11-11 01:28:00,40.0,40.0,30.28,NNW,339,0.0,0.0,100,0.00,CLR,,0.00,WeatherDisplay:10.37,2013-11-11 06:28:00,
2013-11-11 01:29:00,39.9,39.9,30.28,NNW,339,0.0,0.0,100,0.00,CLR,,0.00,WeatherDisplay:10.37,2013-11-11 06:29:00,
2013-11-11 01:30:00,39.9,39.9,30.28,NNW,339,0.0,0.0,100,0.00,CLR,,0.00,WeatherDisplay:10.37,2013-11-11 06:30:00,
2013-11-11 01:31:00,39.9,39.9,30.29,NNW,339,0.0,0.0,100,0.00,CLR,,0.00,WeatherDisplay:10.37,2013-11-11 06:31:00,
2013-11-11 01:33:00,39.9,39.9,30.28,NNW,339,0.0,0.0,100,0.00,CLR,,0.00,WeatherDisplay:10.37,2013-11-11 06:33:00,
2013-11-11 01:35:00,39.7,39.7,30.29,NNW,339,0.0,0.0,100,0.00,CLR,,0.00,WeatherDisplay:10.37,2013-11-11 06:35:00,
2013-11-11 01:36:00,39.7,39.7,30.29,NNW,339,0.0,0.0,100,0.00,CLR,,0.00,WeatherDisplay:10.37,2013-11-11 06:36:00,
2013-11-11 01:38:00,39.6,39.6,30.29,NNW,339,0.0,0.0,100,0.00,CLR,,0.00,WeatherDisplay:10.37,2013-11-11 06:38:00,
2013-11-11 01:39:00,39.6,39.6,30.28,NNW,339,0.0,0.0,100,0.00,CLR,,0.00,WeatherDisplay:10.37,2013-11-11 06:39:00,
2013-11-11 01:40:00,39.5,39.5,30.28,NNW,339,0.0,0.0,100,0.00,CLR,,0.00,WeatherDisplay:10.37,2013-11-11 06:40:00,
2013-11-11 01:41:00,39.5,39.5,30.28,NNW,339,0.0,0.0,100,0.00,CLR,,0.00,WeatherDisplay:10.37,2013-11-11 06:41:00,
2013-11-11 01:43:00,39.5,39.5,30.29,NNW,339,0.0,0.0,100,0.00,CLR,,0.00,WeatherDisplay:10.37,2013-11-11 06:43:00,
2013-11-11 01:44:00,39.5,39.5,30.29,NNW,339,0.0,0.0,100,0.00,CLR,,0.00,WeatherDisplay:10.37,2013-11-11 06:44:00,
2013-11-11 01:45:00,39.5,39.5,30.29,NNW,339,0.0,0.0,100,0.00,CLR,,0.00,WeatherDisplay:10.37,2013-11-11 06:45:00,
2013-11-11 01:46:00,39.5,39.5,30.29,NNW,339,0.0,0.0,100,0.00,CLR,,0.00,WeatherDisplay:10.37,2013-11-11 06:46:00,
2013-11-11 01:48:00,39.5,39.5,30.29,NNW,339,0.0,0.0,100,0.00,CLR,,0.00,WeatherDisplay:10.37,2013-11-11 06:48:00,
2013-11-11 01:49:00,39.4,39.4,30.29,NNW,339,0.0,0.0,100,0.00,CLR,,0.00,WeatherDisplay:10.37,2013-11-11 06:49:00,
2013-11-11 01:50:00,39.4,39.4,30.29,NNW,339,0.0,0.0,100,0.00,CLR,,0.00,WeatherDisplay:10.37,2013-11-11 06:50:00,
2013-11-11 01:51:00,39.3,39.3,30.29,NNW,339,0.0,0.0,100,0.00,CLR,,0.00,WeatherDisplay:10.37,2013-11-11 06:51:00,
2013-11-11 01:52:00,39.3,39.3,30.29,NNW,339,0.0,0.0,100,0.00,CLR,,0.00,WeatherDisplay:10.37,2013-11-11 06:52:00,
2013-11-11 01:53:00,39.2,39.2,30.28,NNW,339,0.0,0.0,100,0.00,CLR,,0.00,WeatherDisplay:10.37,2013-11-11 06:53:00,
2013-11-11 01:54:00,39.2,39.2,30.28,NNW,339,0.0,0.0,100,0.00,CLR,,0.00,WeatherDisplay:10.37,2013-11-11 06:54:00,
2013-11-11 01:55:00,39.2,39.2,30.28,NNW,339,0.0,0.0,100,0.00,CLR,,0.00,WeatherDisplay:10.37,2013-11-11 06:55:00,
2013-11-11 01:56:00,39.2,39.2,30.28,NNW,339,0.0,0.0,100,0.00,CLR,,0.00,WeatherDisplay:10.37,2013-11-11 06:56:00,
2013-11-11 01:57:00,39.2,39.2,30.28,NNW,339,0.0,0.0,100,0.00,CLR,,0.00,WeatherDisplay:10.37,2013-11-11 06:57:00,
2013-11-11 01:58:00,39.3,39.3,30.29,NNW,339,0.0,0.0,100,0.00,CLR,,0.00,WeatherDisplay:10.37,2013-11-11 06:58:00,
2013-11-11 01:59:00,39.2,39.2,30.28,NNW,339,0.0,0.0,100,0.00,CLR,,0.00,WeatherDisplay:10.37,2013-11-11 06:59:00,
2013-11-11 02:00:00,39.2,39.2,30.28,NNW,339,0.0,0.0,100,0.00,CLR,,0.00,WeatherDisplay:10.37,2013-11-11 07:00:00,
2013-11-11 02:01:00,39.2,39.2,30.28,NNW,339,0.0,0.0,100,0.00,CLR,,0.00,WeatherDisplay:10.37,2013-11-11 07:01:00,
2013-11-11 02:02:00,39.1,39.1,30.28,NNW,339,0.0,0.0,100,0.00,CLR,,0.00,WeatherDisplay:10.37,2013-11-11 07:02:00,
2013-11-11 02:04:00,39.0,39.0,30.28,NNW,339,0.0,0.0,100,0.00,CLR,,0.00,WeatherDisplay:10.37,2013-11-11 07:04:00,
2013-11-11 02:05:00,39.0,39.0,30.28,NNW,339,0.0,0.0,100,0.00,CLR,,0.00,WeatherDisplay:10.37,2013-11-11 07:05:00,
2013-11-11 02:06:00,39.0,39.0,30.28,NNW,339,0.0,0.0,100,0.00,CLR,,0.00,WeatherDisplay:10.37,2013-11-11 07:06:00,
2013-11-11 02:07:00,38.8,38.8,30.28,NNW,339,0.0,0.0,100,0.00,CLR,,0.00,WeatherDisplay:10.37,2013-11-11 07:07:00,
2013-11-11 02:09:00,38.7,38.7,30.28,NNW,339,0.0,0.0,100,0.00,CLR,,0.00,WeatherDisplay:10.37,2013-11-11 07:09:00,
2013-11-11 02:10:00,38.7,38.7,30.28,NNW,339,0.0,0.0,100,0.00,CLR,,0.00,WeatherDisplay:10.37,2013-11-11 07:10:00,
2013-11-11 02:11:00,38.6,38.6,30.28,NNW,339,0.0,0.0,100,0.00,CLR,,0.00,WeatherDisplay:10.37,2013-11-11 07:11:00,
2013-11-11 02:13:00,38.6,38.6,30.28,NNW,339,0.0,0.0,100,0.00,CLR,,0.00,WeatherDisplay:10.37,2013-11-11 07:13:00,
2013-11-11 02:14:00,38.6,38.6,30.28,NNW,339,0.0,0.0,100,0.00,CLR,,0.00,WeatherDisplay:10.37,2013-11-11 07:14:00,
2013-11-11 02:15:00,38.6,38.6,30.28,NNW,339,0.0,0.0,100,0.00,CLR,,0.00,WeatherDisplay:10.37,2013-11-11 07:15:00,
2013-11-11 02:16:00,38.5,38.5,30.28,NNW,339,0.0,0.0,100,0.00,CLR,,0.00,WeatherDisplay:10.37,2013-11-11 07:16:00,
2013-11-11 02:18:00,38.5,38.5,30.28,NNW,339,0.0,0.0,100,0.00,CLR,,0.00,WeatherDisplay:10.37,2013-11-11 07:18:00,
2013-11-11 02:20:00,38.3,38.3,30.28,NNW,339,0.0,0.0,100,0.00,CLR,,0.00,WeatherDisplay:10.37,2013-11-11 07:20:00,
2013-11-11 02:21:00,38.2,38.2,30.28,NNW,339,0.0,0.0,100,0.00,CLR,,0.00,WeatherDisplay:10.37,2013-11-11 07:21:00,
2013-11-11 02:22:00,38.2,38.2,30.28,NNW,339,0.0,0.0,100,0.00,CLR,,0.00,WeatherDisplay:10.37,2013-11-11 07:22:00,
2013-11-11 02:23:00,38.2,38.2,30.28,NNW,339,0.0,0.0,100,0.00,CLR,,0.00,WeatherDisplay:10.37,2013-11-11 07:23:00,
2013-11-11 02:25:00,38.2,38.2,30.28,NNW,339,0.0,0.0,100,0.00,CLR,,0.00,WeatherDisplay:10.37,2013-11-11 07:25:00,
2013-11-11 02:27:00,38.1,38.1,30.28,NNW,339,0.0,0.0,100,0.00,CLR,,0.00,WeatherDisplay:10.37,2013-11-11 07:27:00,
2013-11-11 02:28:00,38.0,38.0,30.28,NNW,339,0.0,0.0,100,0.00,CLR,,0.00,WeatherDisplay:10.37,2013-11-11 07:28:00,
2013-11-11 02:30:00,37.9,37.9,30.28,NNW,339,0.0,0.0,100,0.00,CLR,,0.00,WeatherDisplay:10.37,2013-11-11 07:30:00,
2013-11-11 02:32:00,37.8,37.8,30.27,NNW,339,0.0,0.0,100,0.00,CLR,,0.00,WeatherDisplay:10.37,2013-11-11 07:32:00,
2013-11-11 02:33:00,37.9,37.9,30.28,NNW,339,0.0,0.0,100,0.00,CLR,,0.00,WeatherDisplay:10.37,2013-11-11 07:33:00,
2013-11-11 02:35:00,37.9,37.9,30.28,NNW,339,0.0,0.0,100,0.00,CLR,,0.00,WeatherDisplay:10.37,2013-11-11 07:35:00,
2013-11-11 02:36:00,37.9,37.9,30.27,NNW,339,0.0,0.0,100,0.00,CLR,,0.00,WeatherDisplay:10.37,2013-11-11 07:36:00,
2013-11-11 02:37:00,37.9,37.9,30.27,NNW,339,0.0,0.0,100,0.00,CLR,,0.00,WeatherDisplay:10.37,2013-11-11 07:37:00,
2013-11-11 02:38:00,37.9,37.9,30.27,NNW,339,0.0,0.0,100,0.00,CLR,,0.00,WeatherDisplay:10.37,2013-11-11 07:38:00,
2013-11-11 02:40:00,37.8,37.8,30.27,NNW,339,0.0,0.0,100,0.00,CLR,,0.00,WeatherDisplay:10.37,2013-11-11 07:40:00,
2013-11-11 02:42:00,37.7,37.7,30.27,NNW,339,0.0,0.0,100,0.00,CLR,,0.00,WeatherDisplay:10.37,2013-11-11 07:42:00,
2013-11-11 02:43:00,37.7,37.7,30.27,NNW,339,0.0,0.0,100,0.00,CLR,,0.00,WeatherDisplay:10.37,2013-11-11 07:43:00,
2013-11-11 02:46:00,37.5,37.5,30.27,NNW,339,0.0,0.0,100,0.00,CLR,,0.00,WeatherDisplay:10.37,2013-11-11 07:46:00,
2013-11-11 02:47:00,37.5,37.5,30.27,NNW,339,0.0,0.0,100,0.00,CLR,,0.00,WeatherDisplay:10.37,2013-11-11 07:47:00,
2013-11-11 02:48:00,37.5,37.5,30.27,NNW,339,0.0,0.0,100,0.00,CLR,,0.00,WeatherDisplay:10.37,2013-11-11 07:48:00,
2013-11-11 02:49:00,37.4,37.4,30.27,NNW,339,0.0,0.0,100,0.00,CLR,,0.00,WeatherDisplay:10.37,2013-11-11 07:49:00,
2013-11-11 02:51:00,37.3,37.3,30.27,NNW,339,0.0,0.0,100,0.00,CLR,,0.00,WeatherDisplay:10.37,2013-11-11 07:51:00,
2013-11-11 02:52:00,37.2,37.2,30.28,NNW,339,0.0,0.0,100,0.00,CLR,,0.00,WeatherDisplay:10.37,2013-11-11 07:52:00,
2013-11-11 02:53:00,37.2,37.2,30.27,NNW,339,0.0,0.0,100,0.00,CLR,,0.00,WeatherDisplay:10.37,2013-11-11 07:53:00,
2013-11-11 02:54:00,37.2,37.2,30.28,NNW,339,0.0,0.0,100,0.00,CLR,,0.00,WeatherDisplay:10.37,2013-11-11 07:54:00,
2013-11-11 02:56:00,37.2,37.2,30.27,NNW,339,0.0,0.0,100,0.00,CLR,,0.00,WeatherDisplay:10.37,2013-11-11 07:56:00,
2013-11-11 02:57:00,37.2,37.2,30.28,NNW,339,0.0,0.0,100,0.00,CLR,,0.00,WeatherDisplay:10.37,2013-11-11 07:57:00,
2013-11-11 02:58:00,37.1,37.1,30.28,NNW,339,0.0,0.0,100,0.00,CLR,,0.00,WeatherDisplay:10.37,2013-11-11 07:58:00,
2013-11-11 02:59:00,37.1,37.1,30.28,NNW,339,0.0,0.0,100,0.00,CLR,,0.00,WeatherDisplay:10.37,2013-11-11 07:59:00,
2013-11-11 03:01:00,37.1,37.1,30.27,NNW,339,0.0,0.0,100,0.00,CLR,,0.00,WeatherDisplay:10.37,2013-11-11 08:01:00,
2013-11-11 03:02:00,37.1,37.1,30.27,NNW,339,0.0,0.0,100,0.00,CLR,,0.00,WeatherDisplay:10.37,2013-11-11 08:02:00,
2013-11-11 03:03:00,37.1,37.1,30.28,NNW,339,0.0,0.0,100,0.00,CLR,,0.00,WeatherDisplay:10.37,2013-11-11 08:03:00,
2013-11-11 03:04:00,37.1,37.1,30.28,NNW,339,0.0,0.0,100,0.00,CLR,,0.00,WeatherDisplay:10.37,2013-11-11 08:04:00,
2013-11-11 03:07:00,37.0,37.0,30.28,NNW,339,0.0,0.0,100,0.00,CLR,,0.00,WeatherDisplay:10.37,2013-11-11 08:07:00,
2013-11-11 03:08:00,36.9,36.9,30.28,NNW,339,0.0,0.0,100,0.00,CLR,,0.00,WeatherDisplay:10.37,2013-11-11 08:08:00,
2013-11-11 03:09:00,36.8,36.8,30.27,NNW,339,0.0,0.0,100,0.00,CLR,,0.00,WeatherDisplay:10.37,2013-11-11 08:09:00,
2013-11-11 03:10:00,36.7,36.7,30.27,NNW,339,0.0,0.0,100,0.00,CLR,,0.00,WeatherDisplay:10.37,2013-11-11 08:10:00,
2013-11-11 03:12:00,36.5,36.5,30.27,NNW,339,0.0,0.0,100,0.00,CLR,,0.00,WeatherDisplay:10.37,2013-11-11 08:12:00,
2013-11-11 03:13:00,36.5,36.5,30.27,NNW,339,0.0,0.0,100,0.00,CLR,,0.00,WeatherDisplay:10.37,2013-11-11 08:13:00,
2013-11-11 03:14:00,36.6,36.6,30.28,NNW,339,0.0,0.0,100,0.00,CLR,,0.00,WeatherDisplay:10.37,2013-11-11 08:14:00,
2013-11-11 03:15:00,36.6,36.6,30.28,NNW,339,0.0,0.0,100,0.00,CLR,,0.00,WeatherDisplay:10.37,2013-11-11 08:15:00,
2013-11-11 03:17:00,36.6,36.6,30.28,NNW,339,0.0,0.0,100,0.00,CLR,,0.00,WeatherDisplay:10.37,2013-11-11 08:17:00,
2013-11-11 03:18:00,36.6,36.6,30.28,NNW,339,0.0,0.0,100,0.00,CLR,,0.00,WeatherDisplay:10.37,2013-11-11 08:18:00,
2013-11-11 03:20:00,36.5,36.5,30.28,NNW,339,0.0,0.0,100,0.00,CLR,,0.00,WeatherDisplay:10.37,2013-11-11 08:20:00,
2013-11-11 03:21:00,36.5,36.5,30.27,NNW,339,0.0,0.0,100,0.00,CLR,,0.00,WeatherDisplay:10.37,2013-11-11 08:21:00,
2013-11-11 03:23:00,36.5,36.5,30.27,NNW,339,0.0,0.0,100,0.00,CLR,,0.00,WeatherDisplay:10.37,2013-11-11 08:23:00,
2013-11-11 03:25:00,36.5,36.5,30.27,NNW,339,0.0,0.0,100,0.00,CLR,,0.00,WeatherDisplay:10.37,2013-11-11 08:25:00,
2013-11-11 03:26:00,36.5,36.5,30.27,NNW,339,0.0,0.0,100,0.00,CLR,,0.00,WeatherDisplay:10.37,2013-11-11 08:26:00,
2013-11-11 03:28:00,36.4,36.4,30.27,NNW,339,0.0,0.0,100,0.00,CLR,,0.00,WeatherDisplay:10.37,2013-11-11 08:28:00,
2013-11-11 03:30:00,36.3,36.3,30.27,NNW,339,0.0,0.0,100,0.00,CLR,,0.00,WeatherDisplay:10.37,2013-11-11 08:30:00,
2013-11-11 03:31:00,36.3,36.3,30.27,NNW,339,0.0,0.0,100,0.00,CLR,,0.00,WeatherDisplay:10.37,2013-11-11 08:31:00,
2013-11-11 03:33:00,36.3,36.3,30.27,NNW,339,0.0,0.0,100,0.00,CLR,,0.00,WeatherDisplay:10.37,2013-11-11 08:33:00,
2013-11-11 03:34:00,36.3,36.3,30.27,NNW,339,0.0,0.0,100,0.00,CLR,,0.00,WeatherDisplay:10.37,2013-11-11 08:34:00,
2013-11-11 03:35:00,36.2,36.2,30.27,NNW,339,0.0,0.0,100,0.00,CLR,,0.00,WeatherDisplay:10.37,2013-11-11 08:35:00,
2013-11-11 03:36:00,36.2,36.2,30.27,NNW,339,0.0,0.0,100,0.00,CLR,,0.00,WeatherDisplay:10.37,2013-11-11 08:36:00,
2013-11-11 03:37:00,36.1,36.1,30.27,NNW,339,0.0,0.0,100,0.00,CLR,,0.00,WeatherDisplay:10.37,2013-11-11 08:37:00,
2013-11-11 03:38:00,36.1,36.1,30.27,NNW,339,0.0,0.0,100,0.00,CLR,,0.00,WeatherDisplay:10.37,2013-11-11 08:38:00,
2013-11-11 03:39:00,36.1,36.1,30.27,NNW,339,0.0,0.0,100,0.00,CLR,,0.00,WeatherDisplay:10.37,2013-11-11 08:39:00,
2013-11-11 03:41:00,36.0,36.0,30.27,NNW,339,0.0,0.0,100,0.00,CLR,,0.00,WeatherDisplay:10.37,2013-11-11 08:41:00,
2013-11-11 03:42:00,36.0,36.0,30.27,NNW,339,0.0,0.0,100,0.00,CLR,,0.00,WeatherDisplay:10.37,2013-11-11 08:42:00,
2013-11-11 03:43:00,36.0,36.0,30.27,NNW,339,0.0,0.0,100,0.00,CLR,,0.00,WeatherDisplay:10.37,2013-11-11 08:43:00,
2013-11-11 03:44:00,36.0,36.0,30.28,NNW,339,0.0,0.0,100,0.00,CLR,,0.00,WeatherDisplay:10.37,2013-11-11 08:44:00,
2013-11-11 03:46:00,36.0,36.0,30.27,NNW,339,0.0,0.0,100,0.00,CLR,,0.00,WeatherDisplay:10.37,2013-11-11 08:46:00,
2013-11-11 03:47:00,35.9,35.9,30.27,NNW,339,0.0,0.0,100,0.00,CLR,,0.00,WeatherDisplay:10.37,2013-11-11 08:47:00,
2013-11-11 03:48:00,35.9,35.9,30.28,NNW,339,0.4,2.3,100,0.00,CLR,,0.00,WeatherDisplay:10.37,2013-11-11 08:48:00,
2013-11-11 03:49:00,35.8,35.8,30.28,NNW,339,0.0,1.1,100,0.00,CLR,,0.00,WeatherDisplay:10.37,2013-11-11 08:49:00,
2013-11-11 03:51:00,35.6,35.6,30.28,NNW,339,0.0,0.0,100,0.00,CLR,,0.00,WeatherDisplay:10.37,2013-11-11 08:51:00,
2013-11-11 03:52:00,35.3,35.3,30.28,NNW,339,0.0,0.0,100,0.00,CLR,,0.00,WeatherDisplay:10.37,2013-11-11 08:52:00,
2013-11-11 03:53:00,35.2,35.2,30.28,NNW,339,0.0,0.0,100,0.00,CLR,,0.00,WeatherDisplay:10.37,2013-11-11 08:53:00,
2013-11-11 03:54:00,35.1,35.1,30.28,NNW,339,0.0,0.0,100,0.00,CLR,,0.00,WeatherDisplay:10.37,2013-11-11 08:54:00,
2013-11-11 03:56:00,35.2,35.2,30.28,NNW,339,0.0,0.0,100,0.00,CLR,,0.00,WeatherDisplay:10.37,2013-11-11 08:56:00,
2013-11-11 03:58:00,35.3,35.3,30.28,NNW,339,0.0,0.0,100,0.00,CLR,,0.00,WeatherDisplay:10.37,2013-11-11 08:58:00,
2013-11-11 03:59:00,35.3,35.3,30.28,NNW,339,0.0,0.0,100,0.00,CLR,,0.00,WeatherDisplay:10.37,2013-11-11 08:59:00,
2013-11-11 04:01:00,35.4,35.4,30.27,NNW,339,0.0,0.0,100,0.00,CLR,,0.00,WeatherDisplay:10.37,2013-11-11 09:01:00,
2013-11-11 04:03:00,35.6,35.6,30.27,NNW,339,0.0,0.0,100,0.00,CLR,,0.00,WeatherDisplay:10.37,2013-11-11 09:03:00,
2013-11-11 04:04:00,35.6,35.6,30.27,NNW,339,0.0,0.0,100,0.00,CLR,,0.00,WeatherDisplay:10.37,2013-11-11 09:04:00,
2013-11-11 04:06:00,35.5,35.5,30.28,NNW,339,0.0,0.0,100,0.00,CLR,,0.00,WeatherDisplay:10.37,2013-11-11 09:06:00,
2013-11-11 04:09:00,35.3,35.3,30.28,NNW,339,0.0,0.0,100,0.00,CLR,,0.00,WeatherDisplay:10.37,2013-11-11 09:09:00,
2013-11-11 04:10:00,35.2,35.2,30.28,NNW,339,0.0,0.0,100,0.00,CLR,,0.00,WeatherDisplay:10.37,2013-11-11 09:10:00,
2013-11-11 04:11:00,35.1,35.1,30.28,NNW,339,0.0,0.0,100,0.00,CLR,,0.00,WeatherDisplay:10.37,2013-11-11 09:11:00,
2013-11-11 04:14:00,35.0,35.0,30.28,NNW,339,0.0,0.0,100,0.00,CLR,,0.00,WeatherDisplay:10.37,2013-11-11 09:14:00,
2013-11-11 04:15:00,35.0,35.0,30.28,NNW,339,0.0,0.0,100,0.00,CLR,,0.00,WeatherDisplay:10.37,2013-11-11 09:15:00,
2013-11-11 04:16:00,35.0,35.0,30.28,NNW,339,0.0,0.0,100,0.00,CLR,,0.00,WeatherDisplay:10.37,2013-11-11 09:16:00,
2013-11-11 04:19:00,35.0,35.0,30.28,NNW,339,0.0,0.0,100,0.00,CLR,,0.00,WeatherDisplay:10.37,2013-11-11 09:19:00,
2013-11-11 04:20:00,35.0,35.0,30.28,NNW,339,0.0,0.0,100,0.00,CLR,,0.00,WeatherDisplay:10.37,2013-11-11 09:20:00,
2013-11-11 04:21:00,35.0,35.0,30.28,NNW,339,0.0,0.0,100,0.00,CLR,,0.00,WeatherDisplay:10.37,2013-11-11 09:21:00,
2013-11-11 04:24:00,34.9,34.9,30.28,NNW,339,0.0,0.0,100,0.00,CLR,,0.00,WeatherDisplay:10.37,2013-11-11 09:24:00,
2013-11-11 04:25:00,34.9,34.9,30.28,NNW,339,0.0,0.0,100,0.00,CLR,,0.00,WeatherDisplay:10.37,2013-11-11 09:25:00,
2013-11-11 04:26:00,34.9,34.9,30.28,NNW,339,0.0,0.0,100,0.00,CLR,,0.00,WeatherDisplay:10.37,2013-11-11 09:26:00,
2013-11-11 04:27:00,34.9,34.9,30.28,NNW,339,0.0,0.0,100,0.00,CLR,,0.00,WeatherDisplay:10.37,2013-11-11 09:27:00,
2013-11-11 04:29:00,34.8,34.8,30.27,NNW,339,0.0,0.0,100,0.00,CLR,,0.00,WeatherDisplay:10.37,2013-11-11 09:29:00,
2013-11-11 04:30:00,34.8,34.8,30.28,NNW,339,0.0,0.0,100,0.00,CLR,,0.00,WeatherDisplay:10.37,2013-11-11 09:30:00,
2013-11-11 04:31:00,34.7,34.7,30.27,NNW,339,0.0,0.0,100,0.00,CLR,,0.00,WeatherDisplay:10.37,2013-11-11 09:31:00,
2013-11-11 04:32:00,34.6,34.6,30.28,NNW,339,0.0,0.0,100,0.00,CLR,,0.00,WeatherDisplay:10.37,2013-11-11 09:32:00,
2013-11-11 04:34:00,34.5,34.5,30.28,NNW,339,0.0,0.0,100,0.00,CLR,,0.00,WeatherDisplay:10.37,2013-11-11 09:34:00,
2013-11-11 04:35:00,34.5,34.5,30.27,NNW,339,0.0,0.0,100,0.00,CLR,,0.00,WeatherDisplay:10.37,2013-11-11 09:35:00,
2013-11-11 04:36:00,34.5,34.5,30.28,NNW,339,0.0,0.0,100,0.00,CLR,,0.00,WeatherDisplay:10.37,2013-11-11 09:36:00,
2013-11-11 04:37:00,34.5,34.5,30.28,NNW,339,0.0,0.0,100,0.00,CLR,,0.00,WeatherDisplay:10.37,2013-11-11 09:37:00,
2013-11-11 04:39:00,34.5,34.5,30.28,NNW,339,0.0,0.0,100,0.00,CLR,,0.00,WeatherDisplay:10.37,2013-11-11 09:39:00,
2013-11-11 04:40:00,34.4,34.4,30.28,NNW,339,0.0,0.0,100,0.00,CLR,,0.00,WeatherDisplay:10.37,2013-11-11 09:40:00,
2013-11-11 04:41:00,34.5,34.5,30.28,NNW,339,0.0,0.0,100,0.00,CLR,,0.00,WeatherDisplay:10.37,2013-11-11 09:41:00,
2013-11-11 04:42:00,34.5,34.5,30.28,NNW,339,0.0,0.0,100,0.00,CLR,,0.00,WeatherDisplay:10.37,2013-11-11 09:42:00,
2013-11-11 04:45:00,34.4,34.4,30.28,NNW,339,0.0,0.0,100,0.00,CLR,,0.00,WeatherDisplay:10.37,2013-11-11 09:45:00,
2013-11-11 04:46:00,34.4,34.4,30.28,NNW,339,0.0,0.0,100,0.00,CLR,,0.00,WeatherDisplay:10.37,2013-11-11 09:46:00,
2013-11-11 04:47:00,34.4,34.4,30.28,NNW,339,0.0,0.0,100,0.00,CLR,,0.00,WeatherDisplay:10.37,2013-11-11 09:47:00,
2013-11-11 04:50:00,34.3,34.3,30.28,NNW,339,0.0,0.0,100,0.00,CLR,,0.00,WeatherDisplay:10.37,2013-11-11 09:50:00,
2013-11-11 04:51:00,34.3,34.3,30.27,NNW,339,0.0,0.0,100,0.00,CLR,,0.00,WeatherDisplay:10.37,2013-11-11 09:51:00,
2013-11-11 04:52:00,34.3,34.3,30.27,NNW,339,0.0,0.0,100,0.00,CLR,,0.00,WeatherDisplay:10.37,2013-11-11 09:52:00,
2013-11-11 04:53:00,34.3,34.3,30.27,NNW,339,0.0,0.0,100,0.00,CLR,,0.00,WeatherDisplay:10.37,2013-11-11 09:53:00,
2013-11-11 04:56:00,34.1,34.1,30.27,NNW,339,0.0,0.0,100,0.00,CLR,,0.00,WeatherDisplay:10.37,2013-11-11 09:56:00,
2013-11-11 04:57:00,34.1,34.1,30.27,NNW,339,0.0,0.0,100,0.00,CLR,,0.00,WeatherDisplay:10.37,2013-11-11 09:57:00,
2013-11-11 04:58:00,34.0,34.0,30.28,NNW,339,0.0,0.0,100,0.00,CLR,,0.00,WeatherDisplay:10.37,2013-11-11 09:58:00,
2013-11-11 05:01:00,34.0,34.0,30.27,NNW,339,0.0,0.0,100,0.00,CLR,,0.00,WeatherDisplay:10.37,2013-11-11 10:01:00,
2013-11-11 05:02:00,33.9,33.9,30.27,NNW,339,0.0,0.0,100,0.00,CLR,,0.00,WeatherDisplay:10.37,2013-11-11 10:02:00,
2013-11-11 05:03:00,33.9,33.9,30.27,NNW,339,0.0,0.0,100,0.00,CLR,,0.00,WeatherDisplay:10.37,2013-11-11 10:03:00,
2013-11-11 05:07:00,33.9,33.9,30.27,NNW,339,0.0,3.5,100,0.00,CLR,,0.00,WeatherDisplay:10.37,2013-11-11 10:07:00,
2013-11-11 05:08:00,33.8,33.8,30.28,NNW,339,0.0,0.0,100,0.00,CLR,,0.00,WeatherDisplay:10.37,2013-11-11 10:08:00,
2013-11-11 05:09:00,33.8,33.8,30.28,NNW,339,0.0,0.0,100,0.00,CLR,,0.00,WeatherDisplay:10.37,2013-11-11 10:09:00,
2013-11-11 05:12:00,33.7,33.7,30.28,NNW,339,0.0,0.0,100,0.00,CLR,,0.00,WeatherDisplay:10.37,2013-11-11 10:12:00,
2013-11-11 05:13:00,33.6,33.6,30.27,NNW,339,0.0,0.0,100,0.00,CLR,,0.00,WeatherDisplay:10.37,2013-11-11 10:13:00,
2013-11-11 05:14:00,33.6,33.6,30.27,NNW,339,0.0,0.0,100,0.00,CLR,,0.00,WeatherDisplay:10.37,2013-11-11 10:14:00,
2013-11-11 05:17:00,33.5,33.5,30.27,NNW,339,0.0,0.0,100,0.00,CLR,,0.00,WeatherDisplay:10.37,2013-11-11 10:17:00,
2013-11-11 05:18:00,33.5,33.5,30.27,NNW,339,0.0,0.0,100,0.00,CLR,,0.00,WeatherDisplay:10.37,2013-11-11 10:18:00,
2013-11-11 05:19:00,33.5,33.5,30.28,NNW,339,0.0,0.0,100,0.00,CLR,,0.00,WeatherDisplay:10.37,2013-11-11 10:19:00,
2013-11-11 05:21:00,33.5,33.5,30.27,NNW,339,0.0,0.0,100,0.00,CLR,,0.00,WeatherDisplay:10.37,2013-11-11 10:21:00,
2013-11-11 05:22:00,33.5,33.5,30.28,NNW,339,0.0,0.0,100,0.00,CLR,,0.00,WeatherDisplay:10.37,2013-11-11 10:22:00,
2013-11-11 05:23:00,33.5,33.5,30.28,NNW,339,0.0,0.0,100,0.00,CLR,,0.00,WeatherDisplay:10.37,2013-11-11 10:23:00,
2013-11-11 05:24:00,33.5,33.5,30.28,NNW,339,0.0,0.0,100,0.00,CLR,,0.00,WeatherDisplay:10.37,2013-11-11 10:24:00,
2013-11-11 05:26:00,33.6,33.6,30.28,NNW,339,0.0,0.0,100,0.00,CLR,,0.00,WeatherDisplay:10.37,2013-11-11 10:26:00,
2013-11-11 05:27:00,33.6,33.6,30.28,NNW,339,0.0,0.0,100,0.00,CLR,,0.00,WeatherDisplay:10.37,2013-11-11 10:27:00,
2013-11-11 05:28:00,33.5,33.5,30.28,NNW,339,0.0,0.0,100,0.00,CLR,,0.00,WeatherDisplay:10.37,2013-11-11 10:28:00,
2013-11-11 05:29:00,33.5,33.5,30.27,NNW,339,0.0,0.0,100,0.00,CLR,,0.00,WeatherDisplay:10.37,2013-11-11 10:29:00,
2013-11-11 05:31:00,33.5,33.5,30.27,NNW,339,0.0,0.0,100,0.00,CLR,,0.00,WeatherDisplay:10.37,2013-11-11 10:31:00,
2013-11-11 05:32:00,33.5,33.5,30.27,NNW,339,0.0,0.0,100,0.00,CLR,,0.00,WeatherDisplay:10.37,2013-11-11 10:32:00,
2013-11-11 05:33:00,33.5,33.5,30.27,NNW,339,0.0,0.0,100,0.00,CLR,,0.00,WeatherDisplay:10.37,2013-11-11 10:33:00,
2013-11-11 05:34:00,33.5,33.5,30.27,NNW,339,0.0,0.0,100,0.00,CLR,,0.00,WeatherDisplay:10.37,2013-11-11 10:34:00,
2013-11-11 05:36:00,33.5,33.5,30.27,NNW,339,0.0,0.0,100,0.00,CLR,,0.00,WeatherDisplay:10.37,2013-11-11 10:36:00,
2013-11-11 05:37:00,33.4,33.4,30.27,NNW,339,0.0,0.0,100,0.00,CLR,,0.00,WeatherDisplay:10.37,2013-11-11 10:37:00,
2013-11-11 05:39:00,33.4,33.4,30.27,NNW,339,0.0,0.0,100,0.00,CLR,,0.00,WeatherDisplay:10.37,2013-11-11 10:39:00,
2013-11-11 05:40:00,33.4,33.4,30.27,NNW,339,0.0,0.0,100,0.00,CLR,,0.00,WeatherDisplay:10.37,2013-11-11 10:40:00,
2013-11-11 05:41:00,33.4,33.4,30.27,NNW,339,0.0,0.0,100,0.00,CLR,,0.00,WeatherDisplay:10.37,2013-11-11 10:41:00,
2013-11-11 05:42:00,33.4,33.4,30.27,NNW,339,0.0,0.0,100,0.00,CLR,,0.00,WeatherDisplay:10.37,2013-11-11 10:42:00,
2013-11-11 05:44:00,33.4,33.4,30.27,NNW,339,0.0,0.0,100,0.00,CLR,,0.00,WeatherDisplay:10.37,2013-11-11 10:44:00,
2013-11-11 05:45:00,33.3,33.3,30.27,NNW,339,0.0,0.0,100,0.00,CLR,,0.00,WeatherDisplay:10.37,2013-11-11 10:45:00,
2013-11-11 05:46:00,33.3,33.3,30.27,NNW,339,0.0,0.0,100,0.00,CLR,,0.00,WeatherDisplay:10.37,2013-11-11 10:46:00,
2013-11-11 05:47:00,33.3,33.3,30.27,NNW,339,0.0,0.0,100,0.00,CLR,,0.00,WeatherDisplay:10.37,2013-11-11 10:47:00,
2013-11-11 05:49:00,33.2,33.2,30.27,NNW,339,0.0,0.0,100,0.00,CLR,,0.00,WeatherDisplay:10.37,2013-11-11 10:49:00,
2013-11-11 05:50:00,33.3,33.3,30.27,NNW,339,0.0,0.0,100,0.00,CLR,,0.00,WeatherDisplay:10.37,2013-11-11 10:50:00,
2013-11-11 05:52:00,33.1,33.1,30.27,NNW,339,0.0,0.0,100,0.00,CLR,,0.00,WeatherDisplay:10.37,2013-11-11 10:52:00,
2013-11-11 05:53:00,33.0,33.0,30.27,NNW,339,0.0,0.0,100,0.00,CLR,,0.00,WeatherDisplay:10.37,2013-11-11 10:53:00,
2013-11-11 05:54:00,32.9,32.9,30.27,NNW,339,0.0,0.0,100,0.00,CLR,,0.00,WeatherDisplay:10.37,2013-11-11 10:54:00,
2013-11-11 05:55:00,32.9,32.9,30.27,NNW,339,0.0,0.0,100,0.00,CLR,,0.00,WeatherDisplay:10.37,2013-11-11 10:55:00,
2013-11-11 05:57:00,32.8,32.8,30.28,NNW,339,0.0,0.0,100,0.00,CLR,,0.00,WeatherDisplay:10.37,2013-11-11 10:57:00,
2013-11-11 05:58:00,32.8,32.8,30.28,NNW,339,0.0,0.0,100,0.00,CLR,,0.00,WeatherDisplay:10.37,2013-11-11 10:58:00,
2013-11-11 05:59:00,32.7,32.7,30.28,NNW,339,0.0,0.0,100,0.00,CLR,,0.00,WeatherDisplay:10.37,2013-11-11 10:59:00,
2013-11-11 06:01:00,32.7,32.7,30.28,NNW,339,0.0,0.0,100,0.00,CLR,,0.00,WeatherDisplay:10.37,2013-11-11 11:01:00,
2013-11-11 06:03:00,32.7,32.7,30.28,NNW,339,0.0,0.0,100,0.00,CLR,,0.00,WeatherDisplay:10.37,2013-11-11 11:03:00,
2013-11-11 06:04:00,32.7,32.7,30.28,NNW,339,0.0,0.0,100,0.00,CLR,,0.00,WeatherDisplay:10.37,2013-11-11 11:04:00,
2013-11-11 06:07:00,32.8,32.8,30.28,NNW,339,0.0,0.0,100,0.00,CLR,,0.00,WeatherDisplay:10.37,2013-11-11 11:07:00,
2013-11-11 06:08:00,32.7,32.7,30.28,NNW,339,0.0,0.0,100,0.00,CLR,,0.00,WeatherDisplay:10.37,2013-11-11 11:08:00,
2013-11-11 06:10:00,32.8,32.8,30.28,NNW,339,0.0,0.0,100,0.00,CLR,,0.00,WeatherDisplay:10.37,2013-11-11 11:10:00,
2013-11-11 06:12:00,32.7,32.7,30.28,NNW,339,0.0,0.0,100,0.00,CLR,,0.00,WeatherDisplay:10.37,2013-11-11 11:12:00,
2013-11-11 06:13:00,32.7,32.7,30.28,NNW,339,0.0,0.0,100,0.00,CLR,,0.00,WeatherDisplay:10.37,2013-11-11 11:13:00,
2013-11-11 06:14:00,32.7,32.7,30.28,NNW,339,0.0,0.0,100,0.00,CLR,,0.00,WeatherDisplay:10.37,2013-11-11 11:14:00,
2013-11-11 06:15:00,32.7,32.7,30.28,NNW,339,0.0,0.0,100,0.00,CLR,,0.00,WeatherDisplay:10.37,2013-11-11 11:15:00,
2013-11-11 06:17:00,32.8,32.8,30.28,NNW,339,0.0,0.0,100,0.00,CLR,,0.00,WeatherDisplay:10.37,2013-11-11 11:17:00,
2013-11-11 06:18:00,32.9,32.9,30.28,NNW,339,0.0,0.0,100,0.00,CLR,,0.00,WeatherDisplay:10.37,2013-11-11 11:18:00,
2013-11-11 06:19:00,32.9,32.9,30.28,NNW,339,0.0,0.0,100,0.00,CLR,,0.00,WeatherDisplay:10.37,2013-11-11 11:19:00,
2013-11-11 06:20:00,32.9,32.9,30.28,NNW,339,0.0,0.0,100,0.00,CLR,,0.00,WeatherDisplay:10.37,2013-11-11 11:20:00,
2013-11-11 06:22:00,32.8,32.8,30.28,NNW,339,0.0,0.0,100,0.00,CLR,,0.00,WeatherDisplay:10.37,2013-11-11 11:22:00,
2013-11-11 06:23:00,32.8,32.8,30.28,NNW,339,0.0,0.0,100,0.00,CLR,,0.00,WeatherDisplay:10.37,2013-11-11 11:23:00,
2013-11-11 06:24:00,32.8,32.8,30.28,NNW,339,0.0,0.0,100,0.00,CLR,,0.00,WeatherDisplay:10.37,2013-11-11 11:24:00,
2013-11-11 06:25:00,32.8,32.8,30.27,NNW,339,0.0,0.0,100,0.00,CLR,,0.00,WeatherDisplay:10.37,2013-11-11 11:25:00,
2013-11-11 06:27:00,32.8,32.8,30.27,NNW,339,0.0,0.0,100,0.00,CLR,,0.00,WeatherDisplay:10.37,2013-11-11 11:27:00,
2013-11-11 06:28:00,32.8,32.8,30.27,NNW,339,0.0,0.0,100,0.00,CLR,,0.00,WeatherDisplay:10.37,2013-11-11 11:28:00,
2013-11-11 06:29:00,32.8,32.8,30.27,NNW,339,0.0,0.0,100,0.00,CLR,,0.00,WeatherDisplay:10.37,2013-11-11 11:29:00,
2013-11-11 06:30:00,32.8,32.8,30.27,NNW,339,0.0,0.0,100,0.00,CLR,,0.00,WeatherDisplay:10.37,2013-11-11 11:30:00,
2013-11-11 06:32:00,32.6,32.6,30.27,NNW,339,0.0,0.0,100,0.00,CLR,,0.00,WeatherDisplay:10.37,2013-11-11 11:32:00,
2013-11-11 06:33:00,32.5,32.5,30.27,NNW,339,0.0,0.0,100,0.00,CLR,,0.00,WeatherDisplay:10.37,2013-11-11 11:33:00,
2013-11-11 06:34:00,32.5,32.5,30.28,NNW,339,0.0,0.0,100,0.00,CLR,,0.00,WeatherDisplay:10.37,2013-11-11 11:34:00,
2013-11-11 06:35:00,32.5,32.5,30.28,NNW,339,0.0,0.0,100,0.00,CLR,,0.00,WeatherDisplay:10.37,2013-11-11 11:35:00,
2013-11-11 06:38:00,32.4,32.4,30.27,NNW,339,0.0,0.0,100,0.00,CLR,,0.00,WeatherDisplay:10.37,2013-11-11 11:38:00,
2013-11-11 06:39:00,32.3,32.3,30.27,NNW,339,0.0,0.0,100,0.00,CLR,,0.00,WeatherDisplay:10.37,2013-11-11 11:39:00,
2013-11-11 06:41:00,32.2,32.2,30.27,NNW,339,0.0,0.0,100,0.00,CLR,,0.00,WeatherDisplay:10.37,2013-11-11 11:41:00,
2013-11-11 06:43:00,32.2,32.2,30.28,NNW,339,0.0,0.0,100,0.00,CLR,,0.00,WeatherDisplay:10.37,2013-11-11 11:43:00,
2013-11-11 06:44:00,32.2,32.2,30.27,NNW,339,0.0,0.0,100,0.00,CLR,,0.00,WeatherDisplay:10.37,2013-11-11 11:44:00,
2013-11-11 06:45:00,32.2,32.2,30.27,NNW,339,0.0,0.0,100,0.00,CLR,,0.00,WeatherDisplay:10.37,2013-11-11 11:45:00,
2013-11-11 06:46:00,32.2,32.2,30.28,NNW,339,0.0,0.0,100,0.00,CLR,,0.00,WeatherDisplay:10.37,2013-11-11 11:46:00,
2013-11-11 06:48:00,32.2,32.2,30.27,NNW,339,0.0,0.0,100,0.00,CLR,,0.00,WeatherDisplay:10.37,2013-11-11 11:48:00,
2013-11-11 06:49:00,32.2,32.2,30.27,NNW,339,0.0,0.0,100,0.00,CLR,,0.00,WeatherDisplay:10.37,2013-11-11 11:49:00,
2013-11-11 06:50:00,32.1,32.1,30.27,NNW,339,0.0,0.0,100,0.00,CLR,,0.00,WeatherDisplay:10.37,2013-11-11 11:50:00,
2013-11-11 06:51:00,32.1,32.1,30.27,NNW,339,0.0,0.0,100,0.00,CLR,,0.00,WeatherDisplay:10.37,2013-11-11 11:51:00,
2013-11-11 06:53:00,32.0,32.0,30.27,NNW,339,0.0,0.0,100,0.00,CLR,,0.00,WeatherDisplay:10.37,2013-11-11 11:53:00,
2013-11-11 06:54:00,31.9,31.9,30.27,NNW,339,0.0,0.0,100,0.00,CLR,,0.00,WeatherDisplay:10.37,2013-11-11 11:54:00,
2013-11-11 06:55:00,31.9,31.9,30.27,NNW,339,0.0,0.0,100,0.00,CLR,,0.00,WeatherDisplay:10.37,2013-11-11 11:55:00,
2013-11-11 06:56:00,31.9,31.9,30.27,NNW,339,0.0,0.0,100,0.00,CLR,,0.00,WeatherDisplay:10.37,2013-11-11 11:56:00,
2013-11-11 06:58:00,31.9,31.9,30.27,NNW,339,0.0,0.0,100,0.00,CLR,,0.00,WeatherDisplay:10.37,2013-11-11 11:58:00,
2013-11-11 07:00:00,31.9,31.9,30.27,NNW,339,0.0,0.0,100,0.00,CLR,,0.00,WeatherDisplay:10.37,2013-11-11 12:00:00,
2013-11-11 07:02:00,31.8,31.8,30.28,NNW,339,0.0,0.0,100,0.00,FEW,,0.00,WeatherDisplay:10.37,2013-11-11 12:02:00,
2013-11-11 07:03:00,31.8,31.8,30.28,NNW,339,0.0,0.0,100,0.00,FEW,,0.00,WeatherDisplay:10.37,2013-11-11 12:03:00,
2013-11-11 07:05:00,31.7,31.7,30.28,NNW,339,0.0,0.0,100,0.00,FEW,,0.00,WeatherDisplay:10.37,2013-11-11 12:05:00,
2013-11-11 07:07:00,31.6,31.6,30.28,NNW,339,0.0,0.0,100,0.00,FEW,,0.00,WeatherDisplay:10.37,2013-11-11 12:07:00,
2013-11-11 07:08:00,31.6,31.6,30.28,NNW,339,0.0,0.0,100,0.00,FEW,,0.00,WeatherDisplay:10.37,2013-11-11 12:08:00,
2013-11-11 07:10:00,31.5,31.5,30.28,NNW,339,0.0,0.0,100,0.00,FEW,,0.00,WeatherDisplay:10.37,2013-11-11 12:10:00,
2013-11-11 07:12:00,31.5,31.5,30.32,NNW,339,0.0,0.0,100,0.00,FEW,,0.00,WeatherDisplay:10.37,2013-11-11 12:12:00,
2013-11-11 07:13:00,31.6,31.6,30.32,NNW,339,0.0,0.0,100,0.00,FEW,,0.00,WeatherDisplay:10.37,2013-11-11 12:13:00,
2013-11-11 07:15:00,31.6,31.6,30.28,NNW,339,0.0,0.0,100,0.00,FEW,,0.00,WeatherDisplay:10.37,2013-11-11 12:15:00,
2013-11-11 07:16:00,31.5,31.5,30.28,NNW,339,0.0,0.0,100,0.00,FEW,,0.00,WeatherDisplay:10.37,2013-11-11 12:16:00,
2013-11-11 07:17:00,31.6,31.6,30.28,NNW,339,0.0,0.0,100,0.00,FEW,,0.00,WeatherDisplay:10.37,2013-11-11 12:17:00,
2013-11-11 07:18:00,31.6,31.6,30.28,NNW,339,0.0,0.0,100,0.00,FEW,,0.00,WeatherDisplay:10.37,2013-11-11 12:18:00,
2013-11-11 07:19:00,31.6,31.6,30.28,NNW,339,0.0,0.0,100,0.00,FEW,,0.00,WeatherDisplay:10.37,2013-11-11 12:19:00,
2013-11-11 07:21:00,31.6,31.6,30.29,NNW,339,0.0,0.0,100,0.00,FEW,,0.00,WeatherDisplay:10.37,2013-11-11 12:21:00,
2013-11-11 07:22:00,31.6,31.6,30.29,NNW,339,0.0,0.0,100,0.00,FEW,,0.00,WeatherDisplay:10.37,2013-11-11 12:22:00,
2013-11-11 07:23:00,31.6,31.6,30.29,NNW,339,0.0,0.0,100,0.00,FEW,,0.00,WeatherDisplay:10.37,2013-11-11 12:23:00,
2013-11-11 07:24:00,31.5,31.5,30.29,NNW,339,0.0,0.0,100,0.00,FEW,,0.00,WeatherDisplay:10.37,2013-11-11 12:24:00,
2013-11-11 07:26:00,31.6,31.6,30.29,NNW,339,0.0,0.0,100,0.00,FEW,,0.00,WeatherDisplay:10.37,2013-11-11 12:26:00,
2013-11-11 07:27:00,31.6,31.6,30.29,NNW,339,0.0,0.0,100,0.00,FEW,,0.00,WeatherDisplay:10.37,2013-11-11 12:27:00,
2013-11-11 07:28:00,31.6,31.6,30.32,NNW,339,0.0,0.0,100,0.00,FEW,,0.00,WeatherDisplay:10.37,2013-11-11 12:28:00,
2013-11-11 07:29:00,31.6,31.6,30.30,NNW,339,0.0,0.0,100,0.00,FEW,,0.00,WeatherDisplay:10.37,2013-11-11 12:29:00,
2013-11-11 07:31:00,31.6,31.6,30.29,NNW,339,0.0,0.0,100,0.00,FEW,,0.00,WeatherDisplay:10.37,2013-11-11 12:31:00,
2013-11-11 07:32:00,31.6,31.6,30.29,NNW,339,0.0,0.0,100,0.00,FEW,,0.00,WeatherDisplay:10.37,2013-11-11 12:32:00,
2013-11-11 07:33:00,31.6,31.6,30.28,NNW,339,0.0,0.0,100,0.00,FEW,,0.00,WeatherDisplay:10.37,2013-11-11 12:33:00,
2013-11-11 07:34:00,31.6,31.6,30.29,NNW,340,0.0,0.0,100,0.00,FEW,,0.00,WeatherDisplay:10.37,2013-11-11 12:34:00,
2013-11-11 07:37:00,31.6,31.6,30.29,NNW,339,0.0,0.0,100,0.00,FEW,,0.00,WeatherDisplay:10.37,2013-11-11 12:37:00,
2013-11-11 07:39:00,31.7,31.7,30.29,NNW,339,0.0,0.0,100,0.00,FEW,,0.00,WeatherDisplay:10.37,2013-11-11 12:39:00,
2013-11-11 07:40:00,31.7,31.7,30.29,NNW,339,0.0,0.0,100,0.00,FEW,,0.00,WeatherDisplay:10.37,2013-11-11 12:40:00,
2013-11-11 07:42:00,31.8,31.8,30.29,NNW,339,0.0,0.0,100,0.00,FEW,,0.00,WeatherDisplay:10.37,2013-11-11 12:42:00,
2013-11-11 07:44:00,31.9,31.9,30.29,NNW,339,0.0,0.0,100,0.00,FEW,,0.00,WeatherDisplay:10.37,2013-11-11 12:44:00,
2013-11-11 07:45:00,31.9,31.9,30.29,NNW,339,0.0,0.0,100,0.00,FEW,,0.00,WeatherDisplay:10.37,2013-11-11 12:45:00,
2013-11-11 07:47:00,32.1,32.1,30.30,NNW,339,0.0,0.0,100,0.00,FEW,,0.00,WeatherDisplay:10.37,2013-11-11 12:47:00,
2013-11-11 07:48:00,32.2,32.2,30.30,NNW,339,0.0,0.0,100,0.00,FEW,,0.00,WeatherDisplay:10.37,2013-11-11 12:48:00,
2013-11-11 07:49:00,32.2,32.2,30.30,NNW,339,0.0,0.0,100,0.00,FEW,,0.00,WeatherDisplay:10.37,2013-11-11 12:49:00,
2013-11-11 07:50:00,32.3,32.3,30.30,NNW,339,0.0,0.0,100,0.00,FEW,,0.00,WeatherDisplay:10.37,2013-11-11 12:50:00,
2013-11-11 07:52:00,32.4,32.4,30.30,NNW,339,0.0,0.0,100,0.00,FEW,,0.00,WeatherDisplay:10.37,2013-11-11 12:52:00,
2013-11-11 07:53:00,32.5,32.5,30.30,NNW,339,0.0,0.0,100,0.00,FEW,,0.00,WeatherDisplay:10.37,2013-11-11 12:53:00,
2013-11-11 07:54:00,32.5,32.5,30.30,NNW,339,0.0,0.0,100,0.00,FEW,,0.00,WeatherDisplay:10.37,2013-11-11 12:54:00,
2013-11-11 07:55:00,32.5,32.5,30.30,NNW,339,0.0,0.0,100,0.00,FEW,,0.00,WeatherDisplay:10.37,2013-11-11 12:55:00,
2013-11-11 07:58:00,32.6,32.6,30.30,NNW,339,0.0,0.0,100,0.00,FEW,,0.00,WeatherDisplay:10.37,2013-11-11 12:58:00,
2013-11-11 08:00:00,32.7,32.7,30.30,NNW,339,0.0,0.0,100,0.00,FEW,,0.00,WeatherDisplay:10.37,2013-11-11 13:00:00,
2013-11-11 08:03:00,33.0,33.0,30.29,NNW,340,0.0,0.0,100,0.00,FEW,,0.00,WeatherDisplay:10.37,2013-11-11 13:03:00,
2013-11-11 08:04:00,33.1,33.1,30.29,NNW,340,0.0,0.0,100,0.00,FEW,,0.00,WeatherDisplay:10.37,2013-11-11 13:04:00,
2013-11-11 08:05:00,33.1,33.1,30.29,NNW,340,0.0,0.0,100,0.00,FEW,,0.00,WeatherDisplay:10.37,2013-11-11 13:05:00,
2013-11-11 08:06:00,33.2,33.2,30.29,NNW,340,0.0,0.0,100,0.00,FEW,,0.00,WeatherDisplay:10.37,2013-11-11 13:06:00,
2013-11-11 08:08:00,33.3,33.3,30.30,NNW,340,0.0,0.0,100,0.00,FEW,,0.00,WeatherDisplay:10.37,2013-11-11 13:08:00,
2013-11-11 08:09:00,33.4,33.4,30.30,NNW,340,0.0,0.0,100,0.00,FEW,,0.00,WeatherDisplay:10.37,2013-11-11 13:09:00,
2013-11-11 08:10:00,33.4,33.4,30.30,NNW,340,0.0,0.0,100,0.00,FEW,,0.00,WeatherDisplay:10.37,2013-11-11 13:10:00,
2013-11-11 08:11:00,33.5,33.5,30.30,NNW,340,0.0,0.0,100,0.00,FEW,,0.00,WeatherDisplay:10.37,2013-11-11 13:11:00,
2013-11-11 08:14:00,33.7,33.7,30.30,NNW,340,0.0,0.0,100,0.00,FEW,,0.00,WeatherDisplay:10.37,2013-11-11 13:14:00,
2013-11-11 08:15:00,33.7,33.7,30.30,NNW,340,0.0,0.0,100,0.00,FEW,,0.00,WeatherDisplay:10.37,2013-11-11 13:15:00,
2013-11-11 08:16:00,33.8,33.8,30.30,NNW,340,0.0,0.0,100,0.00,FEW,,0.00,WeatherDisplay:10.37,2013-11-11 13:16:00,
2013-11-11 08:19:00,33.9,33.9,30.31,NNW,340,0.0,0.0,100,0.00,FEW,,0.00,WeatherDisplay:10.37,2013-11-11 13:19:00,
2013-11-11 08:20:00,34.0,34.0,30.31,NNW,340,0.0,0.0,100,0.00,FEW,,0.00,WeatherDisplay:10.37,2013-11-11 13:20:00,
2013-11-11 08:21:00,34.0,34.0,30.31,NNW,340,0.0,0.0,100,0.00,FEW,,0.00,WeatherDisplay:10.37,2013-11-11 13:21:00,
2013-11-11 08:22:00,34.1,34.1,30.30,NNW,340,0.0,0.0,100,0.00,FEW,,0.00,WeatherDisplay:10.37,2013-11-11 13:22:00,
2013-11-11 08:24:00,34.3,34.3,30.31,NNW,340,0.0,0.0,100,0.00,FEW,,0.00,WeatherDisplay:10.37,2013-11-11 13:24:00,
2013-11-11 08:25:00,34.4,34.4,30.31,NNW,340,0.0,0.0,100,0.00,FEW,,0.00,WeatherDisplay:10.37,2013-11-11 13:25:00,
2013-11-11 08:26:00,34.4,34.4,30.31,NNW,340,0.0,0.0,100,0.00,FEW,,0.00,WeatherDisplay:10.37,2013-11-11 13:26:00,
2013-11-11 08:27:00,34.5,34.5,30.31,NNW,340,0.0,0.0,100,0.00,FEW,,0.00,WeatherDisplay:10.37,2013-11-11 13:27:00,
2013-11-11 08:29:00,34.7,34.7,30.31,NNW,340,0.0,0.0,100,0.00,FEW,,0.00,WeatherDisplay:10.37,2013-11-11 13:29:00,
2013-11-11 08:30:00,34.7,34.7,30.31,NNW,340,0.0,0.0,100,0.00,FEW,,0.00,WeatherDisplay:10.37,2013-11-11 13:30:00,
2013-11-11 08:31:00,34.8,34.8,30.31,NNW,340,0.0,0.0,100,0.00,FEW,,0.00,WeatherDisplay:10.37,2013-11-11 13:31:00,
2013-11-11 08:32:00,34.9,34.9,30.31,NNW,340,0.0,0.0,100,0.00,FEW,,0.00,WeatherDisplay:10.37,2013-11-11 13:32:00,
2013-11-11 08:34:00,35.0,35.0,30.31,NNW,340,0.0,0.0,100,0.00,FEW,,0.00,WeatherDisplay:10.37,2013-11-11 13:34:00,
2013-11-11 08:35:00,35.1,35.1,30.31,NNW,340,0.0,0.0,100,0.00,FEW,,0.00,WeatherDisplay:10.37,2013-11-11 13:35:00,
2013-11-11 08:36:00,35.1,35.1,30.31,NNW,340,0.0,0.0,100,0.00,FEW,,0.00,WeatherDisplay:10.37,2013-11-11 13:36:00,
2013-11-11 08:38:00,35.3,35.3,30.31,NNW,340,0.0,0.0,100,0.00,FEW,,0.00,WeatherDisplay:10.37,2013-11-11 13:38:00,
2013-11-11 08:39:00,35.4,35.4,30.31,NNW,340,0.0,0.0,100,0.00,FEW,,0.00,WeatherDisplay:10.37,2013-11-11 13:39:00,
2013-11-11 08:41:00,35.5,35.5,30.31,NNW,340,0.0,0.0,100,0.00,FEW,,0.00,WeatherDisplay:10.37,2013-11-11 13:41:00,
2013-11-11 08:42:00,35.5,35.5,30.31,NNW,340,0.0,0.0,100,0.00,FEW,,0.00,WeatherDisplay:10.37,2013-11-11 13:42:00,
2013-11-11 08:43:00,35.6,35.6,30.31,NNW,340,0.0,0.0,100,0.00,FEW,,0.00,WeatherDisplay:10.37,2013-11-11 13:43:00,
2013-11-11 08:44:00,35.6,35.6,30.31,NNW,340,0.0,0.0,100,0.00,FEW,,0.00,WeatherDisplay:10.37,2013-11-11 13:44:00,
2013-11-11 08:46:00,35.7,35.7,30.31,NNW,340,0.0,0.0,100,0.00,FEW,,0.00,WeatherDisplay:10.37,2013-11-11 13:46:00,
2013-11-11 08:47:00,35.7,35.7,30.31,NNW,340,0.0,0.0,100,0.00,FEW,,0.00,WeatherDisplay:10.37,2013-11-11 13:47:00,
2013-11-11 08:48:00,35.7,35.7,30.31,NNW,340,0.0,0.0,100,0.00,FEW,,0.00,WeatherDisplay:10.37,2013-11-11 13:48:00,
2013-11-11 08:49:00,35.8,35.8,30.31,NNW,340,0.0,0.0,100,0.00,FEW,,0.00,WeatherDisplay:10.37,2013-11-11 13:49:00,
2013-11-11 08:51:00,36.0,36.0,30.31,NNW,340,0.0,0.0,100,0.00,FEW,,0.00,WeatherDisplay:10.37,2013-11-11 13:51:00,
2013-11-11 08:52:00,36.0,36.0,30.31,NNW,340,0.0,0.0,100,0.00,FEW,,0.00,WeatherDisplay:10.37,2013-11-11 13:52:00,
2013-11-11 08:53:00,36.1,36.1,30.31,NNW,340,0.0,0.0,100,0.00,FEW,,0.00,WeatherDisplay:10.37,2013-11-11 13:53:00,
2013-11-11 08:55:00,36.2,36.2,30.31,NNW,340,0.0,0.0,100,0.00,FEW,,0.00,WeatherDisplay:10.37,2013-11-11 13:55:00,
2013-11-11 08:57:00,36.5,36.5,30.31,NNW,340,0.0,0.0,100,0.00,FEW,,0.00,WeatherDisplay:10.37,2013-11-11 13:57:00,
2013-11-11 08:58:00,36.6,36.6,30.31,NNW,340,0.1,1.1,100,0.00,FEW,,0.00,WeatherDisplay:10.37,2013-11-11 13:58:00,
2013-11-11 09:00:00,36.8,36.8,30.31,NNW,340,0.0,0.0,100,0.00,FEW,,0.00,WeatherDisplay:10.37,2013-11-11 14:00:00,
2013-11-11 09:02:00,37.0,37.0,30.31,NNW,340,0.0,0.0,100,0.00,FEW,,0.00,WeatherDisplay:10.37,2013-11-11 14:02:00,
2013-11-11 09:03:00,37.1,37.1,30.31,NNW,340,0.0,0.0,100,0.00,FEW,,0.00,WeatherDisplay:10.37,2013-11-11 14:03:00,
2013-11-11 09:04:00,37.2,37.2,30.31,NE,40,1.1,3.5,100,0.00,FEW,,0.00,WeatherDisplay:10.37,2013-11-11 14:04:00,
2013-11-11 09:05:00,37.3,37.3,30.31,NE,40,0.2,2.3,100,0.00,FEW,,0.00,WeatherDisplay:10.37,2013-11-11 14:05:00,
2013-11-11 09:07:00,37.5,37.5,30.31,NE,40,0.0,0.0,100,0.00,FEW,,0.00,WeatherDisplay:10.37,2013-11-11 14:07:00,
2013-11-11 09:08:00,37.6,37.6,30.31,NE,43,0.0,1.1,100,0.00,FEW,,0.00,WeatherDisplay:10.37,2013-11-11 14:08:00,
2013-11-11 09:09:00,37.7,37.7,30.31,NE,43,0.4,2.3,100,0.00,FEW,,0.00,WeatherDisplay:10.37,2013-11-11 14:09:00,
2013-11-11 09:10:00,37.8,37.8,30.31,NE,43,0.0,2.3,100,0.00,FEW,,0.00,WeatherDisplay:10.37,2013-11-11 14:10:00,
2013-11-11 09:12:00,38.1,38.1,30.31,NE,44,0.0,1.1,100,0.00,FEW,,0.00,WeatherDisplay:10.37,2013-11-11 14:12:00,
2013-11-11 09:13:00,38.2,38.2,30.31,NE,47,0.0,0.0,100,0.00,FEW,,0.00,WeatherDisplay:10.37,2013-11-11 14:13:00,
2013-11-11 09:14:00,38.2,38.2,30.31,NE,47,0.0,0.0,100,0.00,FEW,,0.00,WeatherDisplay:10.37,2013-11-11 14:14:00,
2013-11-11 09:15:00,38.3,38.3,30.31,NE,47,0.0,0.0,100,0.00,FEW,,0.00,WeatherDisplay:10.37,2013-11-11 14:15:00,
2013-11-11 09:18:00,38.6,38.6,30.31,NE,47,0.0,0.0,100,0.00,FEW,,0.00,WeatherDisplay:10.37,2013-11-11 14:18:00,
2013-11-11 09:19:00,38.6,38.6,30.31,NE,47,0.0,0.0,100,0.00,FEW,,0.00,WeatherDisplay:10.37,2013-11-11 14:19:00,
2013-11-11 09:20:00,38.7,38.7,30.31,NE,47,0.0,0.0,100,0.00,FEW,,0.00,WeatherDisplay:10.37,2013-11-11 14:20:00,
2013-11-11 09:23:00,39.1,39.1,30.31,NE,50,0.4,2.0,100,0.00,FEW,,0.00,WeatherDisplay:10.37,2013-11-11 14:23:00,
2013-11-11 09:24:00,39.2,39.2,30.30,NE,56,1.0,3.5,100,0.00,FEW,,0.00,WeatherDisplay:10.37,2013-11-11 14:24:00,
2013-11-11 09:25:00,39.3,39.3,30.31,ENE,59,1.5,3.5,100,0.00,FEW,,0.00,WeatherDisplay:10.37,2013-11-11 14:25:00,
2013-11-11 09:26:00,39.4,39.4,30.31,ENE,64,2.0,3.5,100,0.00,FEW,,0.00,WeatherDisplay:10.37,2013-11-11 14:26:00,
2013-11-11 09:28:00,39.7,39.7,30.31,ENE,64,0.8,3.5,100,0.00,FEW,,0.00,WeatherDisplay:10.37,2013-11-11 14:28:00,
2013-11-11 09:29:00,39.8,39.8,30.31,ENE,64,0.0,3.5,100,0.00,FEW,,0.00,WeatherDisplay:10.37,2013-11-11 14:29:00,
2013-11-11 09:30:00,39.8,39.8,30.31,ENE,64,0.0,3.5,100,0.00,FEW,,0.00,WeatherDisplay:10.37,2013-11-11 14:30:00,
2013-11-11 09:31:00,39.9,39.9,30.31,ENE,64,0.8,3.5,100,0.00,FEW,,0.00,WeatherDisplay:10.37,2013-11-11 14:31:00,
2013-11-11 09:33:00,40.2,40.2,30.31,ENE,78,0.6,3.5,100,0.00,FEW,,0.00,WeatherDisplay:10.37,2013-11-11 14:33:00,
2013-11-11 09:35:00,40.3,40.3,30.31,East,79,0.7,2.3,100,0.00,FEW,,0.00,WeatherDisplay:10.37,2013-11-11 14:35:00,
2013-11-11 09:36:00,40.4,40.4,30.31,East,79,0.3,2.3,100,0.00,FEW,,0.00,WeatherDisplay:10.37,2013-11-11 14:36:00,
2013-11-11 09:37:00,40.4,40.4,30.31,East,79,0.1,2.3,100,0.00,FEW,,0.00,WeatherDisplay:10.37,2013-11-11 14:37:00,
2013-11-11 09:38:00,40.6,40.6,30.31,East,81,0.6,3.5,100,0.00,FEW,,0.00,WeatherDisplay:10.37,2013-11-11 14:38:00,
2013-11-11 09:40:00,40.8,40.8,30.30,East,81,1.1,4.0,100,0.00,FEW,,0.00,WeatherDisplay:10.37,2013-11-11 14:40:00,
2013-11-11 09:41:00,40.9,40.9,30.31,East,81,1.4,3.5,100,0.00,FEW,,0.00,WeatherDisplay:10.37,2013-11-11 14:41:00,
2013-11-11 09:42:00,41.0,41.0,30.30,East,81,0.4,3.5,100,0.00,FEW,,0.00,WeatherDisplay:10.37,2013-11-11 14:42:00,
2013-11-11 09:44:00,41.3,41.3,30.30,East,81,0.0,0.0,100,0.00,FEW,,0.00,WeatherDisplay:10.37,2013-11-11 14:44:00,
2013-11-11 09:45:00,41.4,41.4,30.30,East,81,0.0,0.0,100,0.00,FEW,,0.00,WeatherDisplay:10.37,2013-11-11 14:45:00,
2013-11-11 09:46:00,41.5,41.5,30.30,East,81,0.0,0.0,100,0.00,FEW,,0.00,WeatherDisplay:10.37,2013-11-11 14:46:00,
2013-11-11 09:47:00,41.6,41.6,30.30,East,81,0.0,0.0,100,0.00,FEW,,0.00,WeatherDisplay:10.37,2013-11-11 14:47:00,
2013-11-11 09:49:00,41.8,41.8,30.30,East,81,0.0,0.0,100,0.00,FEW,,0.00,WeatherDisplay:10.37,2013-11-11 14:49:00,
2013-11-11 09:50:00,41.8,41.8,30.30,East,81,0.0,0.0,100,0.00,FEW,,0.00,WeatherDisplay:10.37,2013-11-11 14:50:00,
2013-11-11 09:51:00,41.8,41.8,30.30,East,81,0.0,0.0,100,0.00,FEW,,0.00,WeatherDisplay:10.37,2013-11-11 14:51:00,
2013-11-11 09:52:00,41.9,41.9,30.30,East,81,0.3,2.0,100,0.00,FEW,,0.00,WeatherDisplay:10.37,2013-11-11 14:52:00,
2013-11-11 09:53:00,41.9,41.9,30.30,East,81,0.5,3.5,100,0.00,FEW,,0.00,WeatherDisplay:10.37,2013-11-11 14:53:00,
2013-11-11 09:54:00,41.9,41.9,30.30,East,81,0.0,0.0,100,0.00,FEW,,0.00,WeatherDisplay:10.37,2013-11-11 14:54:00,
2013-11-11 09:55:00,42.1,42.1,30.30,East,81,0.0,0.0,100,0.00,FEW,,0.00,WeatherDisplay:10.37,2013-11-11 14:55:00,
2013-11-11 09:56:00,42.2,42.2,30.30,East,81,0.0,0.0,100,0.00,FEW,,0.00,WeatherDisplay:10.37,2013-11-11 14:56:00,
2013-11-11 09:57:00,42.2,42.2,30.31,East,82,0.0,1.1,100,0.00,FEW,,0.00,WeatherDisplay:10.37,2013-11-11 14:57:00,
2013-11-11 09:58:00,42.3,42.3,30.30,East,82,0.0,0.0,100,0.00,FEW,,0.00,WeatherDisplay:10.37,2013-11-11 14:58:00,
2013-11-11 09:59:00,42.4,42.4,30.30,East,83,0.0,0.0,100,0.00,FEW,,0.00,WeatherDisplay:10.37,2013-11-11 14:59:00,
2013-11-11 10:00:00,42.5,42.5,30.30,East,83,0.0,0.0,100,0.00,FEW,,0.00,WeatherDisplay:10.37,2013-11-11 15:00:00,
2013-11-11 10:02:00,42.7,42.7,30.31,East,83,0.0,0.0,100,0.00,SCT,,0.00,WeatherDisplay:10.37,2013-11-11 15:02:00,
2013-11-11 10:03:00,42.8,42.8,30.31,East,83,0.0,0.0,100,0.00,SCT,,0.00,WeatherDisplay:10.37,2013-11-11 15:03:00,
2013-11-11 10:04:00,42.9,42.9,30.30,East,83,0.0,0.0,100,0.00,SCT,,0.00,WeatherDisplay:10.37,2013-11-11 15:04:00,
2013-11-11 10:05:00,43.0,43.0,30.31,East,82,0.0,0.0,100,0.00,SCT,,0.00,WeatherDisplay:10.37,2013-11-11 15:05:00,
2013-11-11 10:06:00,43.1,43.1,30.31,East,82,0.0,0.0,100,0.00,SCT,,0.00,WeatherDisplay:10.37,2013-11-11 15:06:00,
2013-11-11 10:07:00,43.3,43.3,30.31,East,83,0.0,0.0,100,0.00,SCT,,0.00,WeatherDisplay:10.37,2013-11-11 15:07:00,
2013-11-11 10:08:00,43.4,43.4,30.31,ESE,123,2.7,4.0,100,0.00,SCT,,0.00,WeatherDisplay:10.37,2013-11-11 15:08:00,
2013-11-11 10:09:00,43.5,43.5,30.31,ESE,123,3.6,3.6,100,0.00,SCT,,0.00,WeatherDisplay:10.37,2013-11-11 15:09:00,
2013-11-11 10:10:00,43.6,43.6,30.30,ESE,123,1.4,3.5,100,0.00,SCT,,0.00,WeatherDisplay:10.37,2013-11-11 15:10:00,
2013-11-11 10:11:00,43.8,43.8,30.31,ESE,123,0.0,0.0,100,0.00,SCT,,0.00,WeatherDisplay:10.37,2013-11-11 15:11:00,
2013-11-11 10:12:00,44.0,44.0,30.30,ESE,123,0.6,1.1,100,0.00,SCT,,0.00,WeatherDisplay:10.37,2013-11-11 15:12:00,
2013-11-11 10:13:00,44.1,44.1,30.30,ESE,122,0.1,2.3,100,0.00,SCT,,0.00,WeatherDisplay:10.37,2013-11-11 15:13:00,
2013-11-11 10:14:00,44.2,44.2,30.30,ESE,123,0.0,0.0,100,0.00,SCT,,0.00,WeatherDisplay:10.37,2013-11-11 15:14:00,
2013-11-11 10:15:00,44.3,44.3,30.30,ESE,123,0.0,0.0,100,0.00,SCT,,0.00,WeatherDisplay:10.37,2013-11-11 15:15:00,
2013-11-11 10:16:00,44.5,44.5,30.30,ENE,72,0.0,1.1,100,0.00,SCT,,0.00,WeatherDisplay:10.37,2013-11-11 15:16:00,
2013-11-11 10:17:00,44.6,44.6,30.30,ENE,72,0.0,0.0,100,0.00,SCT,,0.00,WeatherDisplay:10.37,2013-11-11 15:17:00,
2013-11-11 10:19:00,44.8,44.8,30.30,ENE,74,0.3,2.3,100,0.00,SCT,,0.00,WeatherDisplay:10.37,2013-11-11 15:19:00,
2013-11-11 10:20:00,44.9,44.9,30.30,East,97,0.0,2.0,100,0.00,SCT,,0.00,WeatherDisplay:10.37,2013-11-11 15:20:00,
2013-11-11 10:22:00,45.2,45.2,30.30,NE,55,0.0,3.5,100,0.00,SCT,,0.00,WeatherDisplay:10.37,2013-11-11 15:22:00,
2013-11-11 10:23:00,45.3,45.3,30.30,NE,55,0.0,3.5,100,0.00,SCT,,0.00,WeatherDisplay:10.37,2013-11-11 15:23:00,
2013-11-11 10:24:00,45.4,45.4,30.30,ESE,115,3.1,4.0,100,0.00,SCT,,0.00,WeatherDisplay:10.37,2013-11-11 15:24:00,
2013-11-11 10:25:00,45.5,45.5,30.30,ESE,115,3.3,4.6,100,0.00,SCT,,0.00,WeatherDisplay:10.37,2013-11-11 15:25:00,
2013-11-11 10:26:00,45.6,45.6,30.30,SE,137,3.4,5.8,100,0.00,SCT,,0.00,WeatherDisplay:10.37,2013-11-11 15:26:00,
2013-11-11 10:27:00,45.8,45.8,30.30,ESE,121,5.4,8.1,100,0.00,SCT,,0.00,WeatherDisplay:10.37,2013-11-11 15:27:00,
2013-11-11 10:29:00,45.9,45.9,30.30,East,97,3.0,4.6,100,0.00,SCT,,0.00,WeatherDisplay:10.37,2013-11-11 15:29:00,
2013-11-11 10:30:00,45.9,45.9,30.30,ENE,74,4.1,6.9,100,0.00,SCT,,0.00,WeatherDisplay:10.37,2013-11-11 15:30:00,
2013-11-11 10:31:00,45.9,45.9,30.30,ENE,74,4.1,6.9,100,0.00,SCT,,0.00,WeatherDisplay:10.37,2013-11-11 15:31:00,
2013-11-11 10:32:00,46.0,46.0,30.30,ENE,69,4.9,6.9,100,0.00,SCT,,0.00,WeatherDisplay:10.37,2013-11-11 15:32:00,
2013-11-11 10:34:00,46.2,46.2,30.30,ENE,66,0.4,3.5,100,0.00,SCT,,0.00,WeatherDisplay:10.37,2013-11-11 15:34:00,
2013-11-11 10:35:00,46.2,46.2,30.30,ENE,66,0.0,0.0,100,0.00,SCT,,0.00,WeatherDisplay:10.37,2013-11-11 15:35:00,
2013-11-11 10:36:00,46.3,46.3,30.30,ENE,65,0.1,1.1,100,0.00,SCT,,0.00,WeatherDisplay:10.37,2013-11-11 15:36:00,
2013-11-11 10:37:00,46.4,46.4,30.30,ENE,61,0.6,3.5,100,0.00,SCT,,0.00,WeatherDisplay:10.37,2013-11-11 15:37:00,
2013-11-11 10:39:00,46.7,46.7,30.30,ENE,75,1.4,3.5,100,0.00,SCT,,0.00,WeatherDisplay:10.37,2013-11-11 15:39:00,
2013-11-11 10:40:00,46.8,46.8,30.29,ENE,76,0.0,3.5,100,0.00,SCT,,0.00,WeatherDisplay:10.37,2013-11-11 15:40:00,
2013-11-11 10:41:00,46.9,46.9,30.29,NE,37,1.3,5.0,100,0.00,SCT,,0.00,WeatherDisplay:10.37,2013-11-11 15:41:00,
2013-11-11 10:42:00,47.1,47.1,30.29,NE,45,1.9,5.8,100,0.00,SCT,,0.00,WeatherDisplay:10.37,2013-11-11 15:42:00,
2013-11-11 10:43:00,47.1,47.1,30.29,NE,45,1.3,3.5,100,0.00,SCT,,0.00,WeatherDisplay:10.37,2013-11-11 15:43:00,
2013-11-11 10:44:00,47.3,47.3,30.29,NE,46,0.0,1.1,100,0.00,SCT,,0.00,WeatherDisplay:10.37,2013-11-11 15:44:00,
2013-11-11 10:45:00,47.3,47.3,30.29,NE,46,0.0,1.1,100,0.00,SCT,,0.00,WeatherDisplay:10.37,2013-11-11 15:45:00,
2013-11-11 10:46:00,47.4,47.4,30.29,NE,46,0.0,0.0,100,0.00,SCT,,0.00,WeatherDisplay:10.37,2013-11-11 15:46:00,
2013-11-11 10:47:00,47.6,47.6,30.29,NE,46,0.1,1.1,100,0.00,SCT,,0.00,WeatherDisplay:10.37,2013-11-11 15:47:00,
2013-11-11 10:48:00,47.7,47.7,30.29,NE,49,1.7,3.5,100,0.00,SCT,,0.00,WeatherDisplay:10.37,2013-11-11 15:48:00,
2013-11-11 10:50:00,47.9,47.9,30.29,NE,50,0.0,0.0,100,0.00,SCT,,0.00,WeatherDisplay:10.37,2013-11-11 15:50:00,
2013-11-11 10:51:00,48.0,48.0,30.29,NE,50,0.0,0.0,100,0.00,SCT,,0.00,WeatherDisplay:10.37,2013-11-11 15:51:00,
2013-11-11 10:53:00,48.2,48.2,30.29,NE,50,0.0,0.0,100,0.00,SCT,,0.00,WeatherDisplay:10.37,2013-11-11 15:53:00,
2013-11-11 10:55:00,48.4,48.4,30.29,NE,50,0.0,1.1,100,0.00,SCT,,0.00,WeatherDisplay:10.37,2013-11-11 15:55:00,
2013-11-11 10:56:00,48.5,48.5,30.28,NE,50,0.0,0.0,100,0.00,SCT,,0.00,WeatherDisplay:10.37,2013-11-11 15:56:00,
2013-11-11 10:58:00,48.7,48.7,30.28,ESE,110,3.9,4.0,100,0.00,SCT,,0.00,WeatherDisplay:10.37,2013-11-11 15:58:00,
2013-11-11 11:00:00,49.0,49.0,30.28,SE,124,0.4,4.6,100,0.00,SCT,,0.00,WeatherDisplay:10.37,2013-11-11 16:00:00,
2013-11-11 11:01:00,49.1,49.1,30.28,SSW,198,0.7,3.5,100,0.00,SCT,,0.00,WeatherDisplay:10.37,2013-11-11 16:01:00,
2013-11-11 11:03:00,49.2,49.2,30.28,SSW,192,2.9,6.9,100,0.00,SCT,,0.00,WeatherDisplay:10.37,2013-11-11 16:03:00,
2013-11-11 11:04:00,49.3,49.3,30.28,SSW,212,1.0,4.0,100,0.00,SCT,,0.00,WeatherDisplay:10.37,2013-11-11 16:04:00,
2013-11-11 11:05:00,49.4,49.4,30.28,SSE,155,1.6,4.6,100,0.00,SCT,,0.00,WeatherDisplay:10.37,2013-11-11 16:05:00,
2013-11-11 11:06:00,49.5,49.5,30.28,SE,138,3.0,4.0,100,0.00,SCT,,0.00,WeatherDisplay:10.37,2013-11-11 16:06:00,
2013-11-11 11:08:00,49.8,49.8,30.28,SE,132,0.3,3.5,100,0.00,SCT,,0.00,WeatherDisplay:10.37,2013-11-11 16:08:00,
2013-11-11 11:09:00,49.9,49.9,30.28,SSE,154,0.0,0.0,100,0.00,SCT,,0.00,WeatherDisplay:10.37,2013-11-11 16:09:00,
2013-11-11 11:10:00,50.0,50.0,30.28,SE,125,0.0,1.1,100,0.00,SCT,,0.00,WeatherDisplay:10.37,2013-11-11 16:10:00,
2013-11-11 11:11:00,50.1,50.1,30.28,SE,125,1.3,4.0,100,0.00,SCT,,0.00,WeatherDisplay:10.37,2013-11-11 16:11:00,
2013-11-11 11:14:00,50.4,50.4,30.28,ESE,113,0.0,3.5,100,0.00,SCT,,0.00,WeatherDisplay:10.37,2013-11-11 16:14:00,
2013-11-11 11:15:00,50.6,50.6,30.28,ESE,123,1.8,3.0,100,0.00,SCT,,0.00,WeatherDisplay:10.37,2013-11-11 16:15:00,
2013-11-11 11:16:00,50.6,50.6,30.28,SE,126,2.3,4.6,100,0.00,SCT,,0.00,WeatherDisplay:10.37,2013-11-11 16:16:00,
2013-11-11 11:17:00,50.7,50.7,30.28,SE,139,0.8,4.6,100,0.00,SCT,,0.00,WeatherDisplay:10.37,2013-11-11 16:17:00,
2013-11-11 11:19:00,51.0,51.0,30.27,SE,137,0.0,0.0,100,0.00,SCT,,0.00,WeatherDisplay:10.37,2013-11-11 16:19:00,
2013-11-11 11:20:00,51.0,51.0,30.28,ESE,113,0.2,3.0,100,0.00,SCT,,0.00,WeatherDisplay:10.37,2013-11-11 16:20:00,
2013-11-11 11:21:00,51.1,51.1,30.27,East,80,2.9,3.5,100,0.00,SCT,,0.00,WeatherDisplay:10.37,2013-11-11 16:21:00,
2013-11-11 11:22:00,51.2,51.2,30.27,East,95,4.3,4.6,100,0.00,SCT,,0.00,WeatherDisplay:10.37,2013-11-11 16:22:00,
2013-11-11 11:24:00,51.5,51.5,30.27,East,99,0.4,1.1,100,0.00,SCT,,0.00,WeatherDisplay:10.37,2013-11-11 16:24:00,
2013-11-11 11:25:00,51.6,51.6,30.27,ESE,108,1.7,5.0,100,0.00,SCT,,0.00,WeatherDisplay:10.37,2013-11-11 16:25:00,
2013-11-11 11:26:00,51.6,51.6,30.27,ESE,121,3.4,5.0,100,0.00,SCT,,0.00,WeatherDisplay:10.37,2013-11-11 16:26:00,
2013-11-11 11:27:00,51.7,51.7,30.27,ESE,115,2.8,4.6,100,0.00,SCT,,0.00,WeatherDisplay:10.37,2013-11-11 16:27:00,
2013-11-11 11:29:00,52.0,52.0,30.27,SSE,147,0.2,1.1,100,0.00,SCT,,0.00,WeatherDisplay:10.37,2013-11-11 16:29:00,
2013-11-11 11:30:00,52.1,52.1,30.27,SE,146,0.0,2.3,100,0.00,SCT,,0.00,WeatherDisplay:10.37,2013-11-11 16:30:00,
2013-11-11 11:31:00,52.1,52.1,30.27,SSW,200,2.1,5.0,100,0.00,SCT,,0.00,WeatherDisplay:10.37,2013-11-11 16:31:00,
2013-11-11 11:32:00,52.2,52.2,30.27,SW,217,2.9,5.8,100,0.00,SCT,,0.00,WeatherDisplay:10.37,2013-11-11 16:32:00,
2013-11-11 11:35:00,52.4,52.4,30.27,SSW,195,0.2,2.3,100,0.00,SCT,,0.00,WeatherDisplay:10.37,2013-11-11 16:35:00,
2013-11-11 11:36:00,52.4,52.4,30.27,SSW,200,0.4,2.3,100,0.00,SCT,,0.00,WeatherDisplay:10.37,2013-11-11 16:36:00,
2013-11-11 11:37:00,52.5,52.5,30.27,SW,235,3.6,4.6,100,0.00,SCT,,0.00,WeatherDisplay:10.37,2013-11-11 16:37:00,
2013-11-11 11:39:00,52.5,52.5,30.26,WSW,237,0.8,3.5,100,0.00,SCT,,0.00,WeatherDisplay:10.37,2013-11-11 16:39:00,
2013-11-11 11:40:00,52.5,52.5,30.26,WSW,237,0.0,0.0,100,0.00,SCT,,0.00,WeatherDisplay:10.37,2013-11-11 16:40:00,
2013-11-11 11:41:00,52.5,52.5,30.26,WSW,239,0.0,1.0,100,0.00,SCT,,0.00,WeatherDisplay:10.37,2013-11-11 16:41:00,
2013-11-11 11:42:00,52.5,52.5,30.26,WNW,292,2.2,4.0,100,0.00,SCT,,0.00,WeatherDisplay:10.37,2013-11-11 16:42:00,
2013-11-11 11:44:00,52.4,52.4,30.26,WNW,292,1.3,3.5,100,0.00,SCT,,0.00,WeatherDisplay:10.37,2013-11-11 16:44:00,
2013-11-11 11:46:00,52.6,52.6,30.26,West,270,1.7,3.5,100,0.00,SCT,,0.00,WeatherDisplay:10.37,2013-11-11 16:46:00,
2013-11-11 11:47:00,52.6,52.6,30.26,West,270,0.7,3.5,100,0.00,SCT,,0.00,WeatherDisplay:10.37,2013-11-11 16:47:00,
2013-11-11 11:51:00,52.9,52.9,30.26,SSW,193,3.2,5.8,100,0.00,SCT,,0.00,WeatherDisplay:10.37,2013-11-11 16:51:00,
2013-11-11 11:52:00,53.0,53.0,30.26,SSW,194,2.9,5.8,100,0.00,SCT,,0.00,WeatherDisplay:10.37,2013-11-11 16:52:00,
2013-11-11 11:53:00,53.1,53.1,30.25,South,188,2.6,4.6,100,0.00,SCT,,0.00,WeatherDisplay:10.37,2013-11-11 16:53:00,
2013-11-11 11:56:00,53.3,53.3,30.25,SW,227,0.0,0.0,100,0.00,SCT,,0.00,WeatherDisplay:10.37,2013-11-11 16:56:00,
2013-11-11 11:57:00,53.3,53.3,30.25,SW,228,0.0,0.0,100,0.00,SCT,,0.00,WeatherDisplay:10.37,2013-11-11 16:57:00,
2013-11-11 11:58:00,53.4,53.4,30.25,SSW,206,3.3,6.0,100,0.00,SCT,,0.00,WeatherDisplay:10.37,2013-11-11 16:58:00,
2013-11-11 12:02:00,53.6,53.6,30.25,SE,124,0.2,1.0,100,0.00,FEW,,0.00,WeatherDisplay:10.37,2013-11-11 17:02:00,
2013-11-11 12:03:00,53.7,53.7,30.25,SE,124,0.9,2.3,100,0.00,FEW,,0.00,WeatherDisplay:10.37,2013-11-11 17:03:00,
2013-11-11 12:07:00,54.1,54.1,30.25,ESE,116,0.0,0.0,100,0.00,FEW,,0.00,WeatherDisplay:10.37,2013-11-11 17:07:00,
2013-11-11 12:08:00,54.3,54.3,30.25,ESE,103,0.4,2.0,100,0.00,FEW,,0.00,WeatherDisplay:10.37,2013-11-11 17:08:00,
2013-11-11 12:09:00,54.3,54.3,30.25,ESE,119,1.4,5.0,100,0.00,FEW,,0.00,WeatherDisplay:10.37,2013-11-11 17:09:00,
2013-11-11 12:12:00,54.9,54.9,30.25,SSW,194,0.1,1.1,100,0.00,FEW,,0.00,WeatherDisplay:10.37,2013-11-11 17:12:00,
2013-11-11 12:13:00,55.0,55.0,30.25,SW,229,0.7,3.5,100,0.00,FEW,,0.00,WeatherDisplay:10.37,2013-11-11 17:13:00,
2013-11-11 12:14:00,55.0,55.0,30.24,SW,229,0.7,3.5,100,0.00,FEW,,0.00,WeatherDisplay:10.37,2013-11-11 17:14:00,
2013-11-11 12:17:00,55.2,55.2,30.24,SSW,198,1.1,3.5,100,0.00,FEW,,0.00,WeatherDisplay:10.37,2013-11-11 17:17:00,
2013-11-11 12:18:00,55.3,55.3,30.24,SSW,198,1.0,3.5,100,0.00,FEW,,0.00,WeatherDisplay:10.37,2013-11-11 17:18:00,
2013-11-11 12:19:00,55.4,55.4,30.24,SW,234,1.6,3.5,100,0.00,FEW,,0.00,WeatherDisplay:10.37,2013-11-11 17:19:00,
2013-11-11 12:22:00,55.5,55.5,30.24,SW,225,3.4,5.8,100,0.00,FEW,,0.00,WeatherDisplay:10.37,2013-11-11 17:22:00,
2013-11-11 12:23:00,55.6,55.6,30.24,SW,225,0.3,3.5,100,0.00,FEW,,0.00,WeatherDisplay:10.37,2013-11-11 17:23:00,
2013-11-11 12:24:00,55.6,55.6,30.24,SSW,207,0.5,2.0,100,0.00,FEW,,0.00,WeatherDisplay:10.37,2013-11-11 17:24:00,
2013-11-11 12:25:00,55.7,55.7,30.24,South,186,3.0,4.6,100,0.00,FEW,,0.00,WeatherDisplay:10.37,2013-11-11 17:25:00,
2013-11-11 12:27:00,55.9,55.9,30.23,SSW,212,3.0,5.8,100,0.00,FEW,,0.00,WeatherDisplay:10.37,2013-11-11 17:27:00,
2013-11-11 12:28:00,55.9,55.9,30.23,SW,216,3.9,4.6,100,0.00,FEW,,0.00,WeatherDisplay:10.37,2013-11-11 17:28:00,
2013-11-11 12:29:00,56.0,56.0,30.23,WSW,244,4.2,4.6,100,0.00,FEW,,0.00,WeatherDisplay:10.37,2013-11-11 17:29:00,
2013-11-11 12:30:00,56.1,56.1,30.23,SW,216,2.5,5.0,100,0.00,FEW,,0.00,WeatherDisplay:10.37,2013-11-11 17:30:00,
2013-11-11 12:32:00,56.2,56.2,30.23,SW,231,4.3,4.6,100,0.00,FEW,,0.00,WeatherDisplay:10.37,2013-11-11 17:32:00,
2013-11-11 12:33:00,56.3,56.3,30.23,SW,220,4.2,5.8,100,0.00,FEW,,0.00,WeatherDisplay:10.37,2013-11-11 17:33:00,
2013-11-11 12:34:00,56.3,56.3,30.23,SW,218,1.7,4.6,100,0.00,FEW,,0.00,WeatherDisplay:10.37,2013-11-11 17:34:00,
2013-11-11 12:35:00,56.4,56.4,30.23,SW,218,0.0,0.0,100,0.00,FEW,,0.00,WeatherDisplay:10.37,2013-11-11 17:35:00,
2013-11-11 12:37:00,56.4,56.4,30.23,WNW,295,3.5,3.5,100,0.00,FEW,,0.00,WeatherDisplay:10.37,2013-11-11 17:37:00,
2013-11-11 12:38:00,56.4,56.4,30.23,WNW,289,3.4,5.8,100,0.00,FEW,,0.00,WeatherDisplay:10.37,2013-11-11 17:38:00,
2013-11-11 12:39:00,56.4,56.4,30.23,WNW,289,1.6,3.5,100,0.00,FEW,,0.00,WeatherDisplay:10.37,2013-11-11 17:39:00,
2013-11-11 12:40:00,56.4,56.4,30.23,ENE,69,1.7,3.5,100,0.00,FEW,,0.00,WeatherDisplay:10.37,2013-11-11 17:40:00,
2013-11-11 12:41:00,56.5,56.5,30.23,ENE,70,1.5,3.5,100,0.00,FEW,,0.00,WeatherDisplay:10.37,2013-11-11 17:41:00,
2013-11-11 12:42:00,56.7,56.7,30.23,WSW,250,3.8,6.0,100,0.00,FEW,,0.00,WeatherDisplay:10.37,2013-11-11 17:42:00,
2013-11-11 12:44:00,56.6,56.6,30.23,WSW,247,5.1,6.9,100,0.00,FEW,,0.00,WeatherDisplay:10.37,2013-11-11 17:44:00,
2013-11-11 12:45:00,56.6,56.6,30.22,West,281,3.4,5.8,100,0.00,FEW,,0.00,WeatherDisplay:10.37,2013-11-11 17:45:00,
2013-11-11 12:46:00,56.6,56.6,30.22,West,272,4.9,8.1,100,0.00,FEW,,0.00,WeatherDisplay:10.37,2013-11-11 17:46:00,
2013-11-11 12:48:00,56.7,56.7,30.22,WSW,249,4.3,5.8,100,0.00,FEW,,0.00,WeatherDisplay:10.37,2013-11-11 17:48:00,
2013-11-11 12:49:00,56.8,56.8,30.22,South,178,5.5,8.1,100,0.00,FEW,,0.00,WeatherDisplay:10.37,2013-11-11 17:49:00,
2013-11-11 12:50:00,56.8,56.8,30.22,SW,236,5.0,8.0,100,0.00,FEW,,0.00,WeatherDisplay:10.37,2013-11-11 17:50:00,
2013-11-11 12:52:00,57.2,57.2,30.22,SSW,201,0.1,3.5,100,0.00,FEW,,0.00,WeatherDisplay:10.37,2013-11-11 17:52:00,
2013-11-11 12:53:00,57.4,57.4,30.22,South,181,1.4,5.0,100,0.00,FEW,,0.00,WeatherDisplay:10.37,2013-11-11 17:53:00,
2013-11-11 12:54:00,57.5,57.5,30.22,South,179,3.1,5.8,100,0.00,FEW,,0.00,WeatherDisplay:10.37,2013-11-11 17:54:00,
2013-11-11 12:55:00,57.5,57.5,30.22,SSW,213,2.3,7.0,100,0.00,FEW,,0.00,WeatherDisplay:10.37,2013-11-11 17:55:00,
2013-11-11 12:57:00,57.7,57.7,30.22,West,275,5.5,10.4,100,0.00,FEW,,0.00,WeatherDisplay:10.37,2013-11-11 17:57:00,
2013-11-11 12:59:00,57.7,57.7,30.22,West,270,2.5,5.0,100,0.00,FEW,,0.00,WeatherDisplay:10.37,2013-11-11 17:59:00,
2013-11-11 13:00:00,57.7,57.7,30.22,WSW,242,7.0,9.2,100,0.00,FEW,,0.00,WeatherDisplay:10.37,2013-11-11 18:00:00,
2013-11-11 13:03:00,57.8,57.8,30.22,WSW,238,6.7,8.1,100,0.00,FEW,,0.00,WeatherDisplay:10.37,2013-11-11 18:03:00,
2013-11-11 13:04:00,57.9,57.9,30.21,WSW,257,5.5,8.1,100,0.00,FEW,,0.00,WeatherDisplay:10.37,2013-11-11 18:04:00,
2013-11-11 13:05:00,57.9,57.9,30.22,West,271,5.2,8.1,100,0.00,FEW,,0.00,WeatherDisplay:10.37,2013-11-11 18:05:00,
2013-11-11 13:06:00,57.9,57.9,30.22,WSW,237,2.6,5.8,100,0.00,FEW,,0.00,WeatherDisplay:10.37,2013-11-11 18:06:00,
2013-11-11 13:08:00,58.0,58.0,30.21,SW,222,4.8,7.0,100,0.00,FEW,,0.00,WeatherDisplay:10.37,2013-11-11 18:08:00,
2013-11-11 13:09:00,58.1,58.1,30.21,SSW,200,1.0,6.9,100,0.00,FEW,,0.00,WeatherDisplay:10.37,2013-11-11 18:09:00,
2013-11-11 13:10:00,58.1,58.1,30.21,WSW,242,2.0,8.0,100,0.00,FEW,,0.00,WeatherDisplay:10.37,2013-11-11 18:10:00,
2013-11-11 13:11:00,58.3,58.3,30.21,South,190,3.3,5.8,100,0.00,FEW,,0.00,WeatherDisplay:10.37,2013-11-11 18:11:00,
2013-11-11 13:13:00,58.4,58.4,30.21,SSW,212,1.9,4.6,100,0.00,FEW,,0.00,WeatherDisplay:10.37,2013-11-11 18:13:00,
2013-11-11 13:14:00,58.5,58.5,30.21,SW,219,2.3,4.6,100,0.00,FEW,,0.00,WeatherDisplay:10.37,2013-11-11 18:14:00,
2013-11-11 13:15:00,58.6,58.6,30.21,WSW,256,2.5,4.6,100,0.00,FEW,,0.00,WeatherDisplay:10.37,2013-11-11 18:15:00,
2013-11-11 13:16:00,58.7,58.7,30.21,SW,225,2.9,6.0,100,0.00,FEW,,0.00,WeatherDisplay:10.37,2013-11-11 18:16:00,
2013-11-11 13:17:00,58.7,58.7,30.21,SW,230,6.5,7.0,100,0.00,FEW,,0.00,WeatherDisplay:10.37,2013-11-11 18:17:00,
2013-11-11 13:18:00,58.8,58.8,30.21,SSW,205,5.3,10.4,100,0.00,FEW,,0.00,WeatherDisplay:10.37,2013-11-11 18:18:00,
2013-11-11 13:19:00,58.9,58.9,30.20,WSW,249,4.4,9.2,100,0.00,FEW,,0.00,WeatherDisplay:10.37,2013-11-11 18:19:00,
2013-11-11 13:20:00,58.9,58.9,30.21,WSW,253,4.7,8.1,100,0.00,FEW,,0.00,WeatherDisplay:10.37,2013-11-11 18:20:00,
2013-11-11 13:21:00,58.9,58.9,30.21,WSW,251,5.3,7.0,100,0.00,FEW,,0.00,WeatherDisplay:10.37,2013-11-11 18:21:00,
2013-11-11 13:22:00,58.9,58.9,30.20,SW,220,6.7,8.1,100,0.00,FEW,,0.00,WeatherDisplay:10.37,2013-11-11 18:22:00,
2013-11-11 13:24:00,59.0,59.0,30.20,SSW,197,3.8,8.0,100,0.00,FEW,,0.00,WeatherDisplay:10.37,2013-11-11 18:24:00,
2013-11-11 13:25:00,59.1,59.1,30.20,SSW,192,6.2,9.2,100,0.00,FEW,,0.00,WeatherDisplay:10.37,2013-11-11 18:25:00,
2013-11-11 13:26:00,59.1,59.1,30.20,SSW,204,4.7,9.2,100,0.00,FEW,,0.00,WeatherDisplay:10.37,2013-11-11 18:26:00,
2013-11-11 13:28:00,59.2,59.2,30.20,WSW,242,1.8,5.8,100,0.00,FEW,,0.00,WeatherDisplay:10.37,2013-11-11 18:28:00,
2013-11-11 13:29:00,59.3,59.3,30.20,SW,221,3.5,6.9,100,0.00,FEW,,0.00,WeatherDisplay:10.37,2013-11-11 18:29:00,
2013-11-11 13:30:00,59.4,59.4,30.20,SW,216,3.5,6.9,100,0.00,FEW,,0.00,WeatherDisplay:10.37,2013-11-11 18:30:00,
2013-11-11 13:31:00,59.5,59.5,30.20,West,264,2.2,3.5,100,0.00,FEW,,0.00,WeatherDisplay:10.37,2013-11-11 18:31:00,
2013-11-11 13:32:00,59.5,59.5,30.20,West,264,0.7,3.5,100,0.00,FEW,,0.00,WeatherDisplay:10.37,2013-11-11 18:32:00,
2013-11-11 13:33:00,59.6,59.6,30.19,SW,219,0.2,4.0,100,0.00,FEW,,0.00,WeatherDisplay:10.37,2013-11-11 18:33:00,
2013-11-11 13:35:00,59.8,59.8,30.20,SSW,211,6.1,8.1,100,0.00,FEW,,0.00,WeatherDisplay:10.37,2013-11-11 18:35:00,
2013-11-11 13:36:00,59.8,59.8,30.19,SSW,197,2.8,7.0,100,0.00,FEW,,0.00,WeatherDisplay:10.37,2013-11-11 18:36:00,
2013-11-11 13:37:00,59.9,59.9,30.19,SSW,196,7.1,9.2,100,0.00,FEW,,0.00,WeatherDisplay:10.37,2013-11-11 18:37:00,
2013-11-11 13:39:00,60.0,60.0,30.19,SW,236,3.7,6.9,100,0.00,FEW,,0.00,WeatherDisplay:10.37,2013-11-11 18:39:00,
2013-11-11 13:40:00,60.1,60.1,30.19,SW,233,4.8,5.8,100,0.00,FEW,,0.00,WeatherDisplay:10.37,2013-11-11 18:40:00,
2013-11-11 13:41:00,60.1,60.1,30.20,WSW,251,4.6,5.8,100,0.00,FEW,,0.00,WeatherDisplay:10.37,2013-11-11 18:41:00,
2013-11-11 13:42:00,60.1,60.1,30.19,WSW,245,2.6,4.6,100,0.00,FEW,,0.00,WeatherDisplay:10.37,2013-11-11 18:42:00,
2013-11-11 13:44:00,60.2,60.2,30.19,SW,230,6.4,10.4,100,0.00,FEW,,0.00,WeatherDisplay:10.37,2013-11-11 18:44:00,
2013-11-11 13:45:00,60.2,60.2,30.19,WSW,238,6.4,10.4,100,0.00,FEW,,0.00,WeatherDisplay:10.37,2013-11-11 18:45:00,
2013-11-11 13:46:00,60.2,60.2,30.19,WSW,239,6.6,9.2,100,0.00,FEW,,0.00,WeatherDisplay:10.37,2013-11-11 18:46:00,
2013-11-11 13:47:00,60.3,60.3,30.19,WSW,249,5.1,9.2,100,0.00,FEW,,0.00,WeatherDisplay:10.37,2013-11-11 18:47:00,
2013-11-11 13:48:00,60.3,60.3,30.19,SW,221,4.9,9.2,100,0.00,FEW,,0.00,WeatherDisplay:10.37,2013-11-11 18:48:00,
2013-11-11 13:50:00,60.4,60.4,30.19,SW,223,0.2,3.0,100,0.00,FEW,,0.00,WeatherDisplay:10.37,2013-11-11 18:50:00,
2013-11-11 13:51:00,60.5,60.5,30.19,SW,214,5.5,10.0,100,0.00,FEW,,0.00,WeatherDisplay:10.37,2013-11-11 18:51:00,
2013-11-11 13:52:00,60.6,60.6,30.19,SSW,198,7.3,11.5,100,0.00,FEW,,0.00,WeatherDisplay:10.37,2013-11-11 18:52:00,
2013-11-11 13:54:00,60.8,60.8,30.19,SSW,207,3.3,6.9,100,0.00,FEW,,0.00,WeatherDisplay:10.37,2013-11-11 18:54:00,
2013-11-11 13:55:00,60.8,60.8,30.19,SSW,193,3.2,5.8,100,0.00,FEW,,0.00,WeatherDisplay:10.37,2013-11-11 18:55:00,
2013-11-11 13:56:00,60.8,60.8,30.19,South,177,0.7,3.5,100,0.00,FEW,,0.00,WeatherDisplay:10.37,2013-11-11 18:56:00,
2013-11-11 13:59:00,61.0,61.0,30.19,SW,228,6.8,10.4,100,0.00,FEW,,0.00,WeatherDisplay:10.37,2013-11-11 18:59:00,
2013-11-11 14:00:00,61.0,61.0,30.19,West,263,6.2,11.5,100,0.00,FEW,,0.00,WeatherDisplay:10.37,2013-11-11 19:00:00,
2013-11-11 14:02:00,60.9,60.9,30.19,West,263,7.1,7.1,100,0.00,CLR,,0.00,WeatherDisplay:10.37,2013-11-11 19:02:00,
2013-11-11 14:04:00,60.9,60.9,30.19,WSW,242,7.2,10.4,100,0.00,CLR,,0.00,WeatherDisplay:10.37,2013-11-11 19:04:00,
2013-11-11 14:05:00,60.9,60.9,30.19,SSW,202,5.3,10.4,100,0.00,CLR,,0.00,WeatherDisplay:10.37,2013-11-11 19:05:00,
2013-11-11 14:07:00,61.0,61.0,30.19,SSW,212,2.1,4.6,100,0.00,CLR,,0.00,WeatherDisplay:10.37,2013-11-11 19:07:00,
2013-11-11 14:10:00,61.2,61.2,30.19,SSW,194,3.4,11.5,100,0.00,CLR,,0.00,WeatherDisplay:10.37,2013-11-11 19:10:00,
2013-11-11 14:12:00,61.4,61.4,30.19,SSW,207,6.3,11.5,100,0.00,CLR,,0.00,WeatherDisplay:10.37,2013-11-11 19:12:00,
2013-11-11 14:13:00,61.5,61.5,30.18,SSW,209,9.6,13.0,100,0.00,CLR,,0.00,WeatherDisplay:10.37,2013-11-11 19:13:00,
2013-11-11 14:15:00,61.5,61.5,30.19,SSW,196,4.8,8.1,100,0.00,CLR,,0.00,WeatherDisplay:10.37,2013-11-11 19:15:00,
2013-11-11 14:16:00,61.5,61.5,30.18,SW,221,3.8,6.9,100,0.00,CLR,,0.00,WeatherDisplay:10.37,2013-11-11 19:16:00,
2013-11-11 14:17:00,61.6,61.6,30.19,SW,217,3.7,6.9,100,0.00,CLR,,0.00,WeatherDisplay:10.37,2013-11-11 19:17:00,
2013-11-11 14:18:00,61.6,61.6,30.19,SSW,200,3.6,5.8,100,0.00,CLR,,0.00,WeatherDisplay:10.37,2013-11-11 19:18:00,
2013-11-11 14:20:00,61.7,61.7,30.18,SSW,195,3.7,7.0,100,0.00,CLR,,0.00,WeatherDisplay:10.37,2013-11-11 19:20:00,
2013-11-11 14:21:00,61.7,61.7,30.18,SSW,193,9.3,11.5,100,0.00,CLR,,0.00,WeatherDisplay:10.37,2013-11-11 19:21:00,
2013-11-11 14:22:00,61.7,61.7,30.18,SW,225,8.6,11.5,100,0.00,CLR,,0.00,WeatherDisplay:10.37,2013-11-11 19:22:00,
2013-11-11 14:23:00,61.7,61.7,30.18,SSW,207,5.0,10.4,100,0.00,CLR,,0.00,WeatherDisplay:10.37,2013-11-11 19:23:00,
2013-11-11 14:25:00,61.7,61.7,30.18,SW,228,3.0,8.1,100,0.00,CLR,,0.00,WeatherDisplay:10.37,2013-11-11 19:25:00,
2013-11-11 14:26:00,61.7,61.7,30.18,West,265,2.5,5.8,100,0.00,CLR,,0.00,WeatherDisplay:10.37,2013-11-11 19:26:00,
2013-11-11 14:27:00,61.7,61.7,30.18,WSW,252,2.3,6.0,100,0.00,CLR,,0.00,WeatherDisplay:10.37,2013-11-11 19:27:00,
2013-11-11 14:28:00,61.7,61.7,30.18,West,276,5.5,9.2,100,0.00,CLR,,0.00,WeatherDisplay:10.37,2013-11-11 19:28:00,
2013-11-11 14:30:00,61.7,61.7,30.18,WSW,241,2.3,5.8,100,0.00,CLR,,0.00,WeatherDisplay:10.37,2013-11-11 19:30:00,
2013-11-11 14:31:00,61.8,61.8,30.18,WSW,244,5.1,8.1,100,0.00,CLR,,0.00,WeatherDisplay:10.37,2013-11-11 19:31:00,
2013-11-11 14:32:00,61.8,61.8,30.18,West,259,5.3,6.9,100,0.00,CLR,,0.00,WeatherDisplay:10.37,2013-11-11 19:32:00,
2013-11-11 14:33:00,61.8,61.8,30.18,SW,232,5.0,6.9,100,0.00,CLR,,0.00,WeatherDisplay:10.37,2013-11-11 19:33:00,
2013-11-11 14:35:00,61.9,61.9,30.18,SW,225,5.5,7.0,100,0.00,CLR,,0.00,WeatherDisplay:10.37,2013-11-11 19:35:00,
2013-11-11 14:36:00,61.9,61.9,30.18,WSW,238,7.2,9.2,100,0.00,CLR,,0.00,WeatherDisplay:10.37,2013-11-11 19:36:00,
2013-11-11 14:37:00,61.9,61.9,30.18,SSW,202,2.5,10.4,100,0.00,CLR,,0.00,WeatherDisplay:10.37,2013-11-11 19:37:00,
2013-11-11 14:38:00,62.0,62.0,30.18,SSW,203,5.8,13.8,100,0.00,CLR,,0.00,WeatherDisplay:10.37,2013-11-11 19:38:00,
2013-11-11 14:39:00,62.0,62.0,30.18,WSW,247,5.1,11.5,100,0.00,CLR,,0.00,WeatherDisplay:10.37,2013-11-11 19:39:00,
2013-11-11 14:41:00,62.1,62.1,30.18,SW,230,4.4,7.0,100,0.00,CLR,,0.00,WeatherDisplay:10.37,2013-11-11 19:41:00,
2013-11-11 14:42:00,62.1,62.1,30.18,WSW,255,5.8,7.0,100,0.00,CLR,,0.00,WeatherDisplay:10.37,2013-11-11 19:42:00,
2013-11-11 14:43:00,62.1,62.1,30.18,SW,229,5.7,10.4,100,0.00,CLR,,0.00,WeatherDisplay:10.37,2013-11-11 19:43:00,
2013-11-11 14:44:00,62.1,62.1,30.17,WSW,237,7.2,10.4,100,0.00,CLR,,0.00,WeatherDisplay:10.37,2013-11-11 19:44:00,
2013-11-11 14:45:00,62.1,62.1,30.18,SSW,209,5.2,7.0,100,0.00,CLR,,0.00,WeatherDisplay:10.37,2013-11-11 19:45:00,
2013-11-11 14:46:00,62.2,62.2,30.17,SW,222,6.7,11.5,100,0.00,CLR,,0.00,WeatherDisplay:10.37,2013-11-11 19:46:00,
2013-11-11 14:47:00,62.1,62.1,30.17,West,270,6.3,11.5,100,0.00,CLR,,0.00,WeatherDisplay:10.37,2013-11-11 19:47:00,
2013-11-11 14:48:00,62.1,62.1,30.17,SW,232,6.7,9.2,100,0.00,CLR,,0.00,WeatherDisplay:10.37,2013-11-11 19:48:00,
2013-11-11 14:49:00,62.1,62.1,30.17,WSW,243,3.5,8.1,100,0.00,CLR,,0.00,WeatherDisplay:10.37,2013-11-11 19:49:00,
2013-11-11 14:50:00,62.1,62.1,30.17,WSW,249,4.8,8.1,100,0.00,CLR,,0.00,WeatherDisplay:10.37,2013-11-11 19:50:00,
2013-11-11 14:51:00,62.1,62.1,30.17,SW,229,5.4,8.1,100,0.00,CLR,,0.00,WeatherDisplay:10.37,2013-11-11 19:51:00,
2013-11-11 14:52:00,62.1,62.1,30.17,SW,236,6.6,9.2,100,0.00,CLR,,0.00,WeatherDisplay:10.37,2013-11-11 19:52:00,
2013-11-11 14:53:00,62.2,62.2,30.17,WSW,245,5.6,8.0,100,0.00,CLR,,0.00,WeatherDisplay:10.37,2013-11-11 19:53:00,
2013-11-11 14:54:00,62.2,62.2,30.17,SW,234,6.5,8.1,100,0.00,CLR,,0.00,WeatherDisplay:10.37,2013-11-11 19:54:00,
2013-11-11 14:56:00,62.2,62.2,30.17,SSW,208,3.9,8.1,100,0.00,CLR,,0.00,WeatherDisplay:10.37,2013-11-11 19:56:00,
2013-11-11 14:57:00,62.3,62.3,30.17,SSW,207,3.8,6.9,100,0.00,CLR,,0.00,WeatherDisplay:10.37,2013-11-11 19:57:00,
2013-11-11 14:58:00,62.4,62.4,30.17,WSW,245,5.2,6.9,100,0.00,CLR,,0.00,WeatherDisplay:10.37,2013-11-11 19:58:00,
2013-11-11 14:59:00,62.5,62.5,30.17,WSW,251,3.8,6.9,100,0.00,CLR,,0.00,WeatherDisplay:10.37,2013-11-11 19:59:00,
2013-11-11 15:00:00,62.5,62.5,30.17,SW,224,5.7,5.8,100,0.00,CLR,,0.00,WeatherDisplay:10.37,2013-11-11 20:00:00,
2013-11-11 15:01:00,62.6,62.6,30.17,WSW,252,1.3,8.1,100,0.00,CLR,,0.00,WeatherDisplay:10.37,2013-11-11 20:01:00,
2013-11-11 15:02:00,62.6,62.6,30.17,SW,220,3.1,10.4,100,0.00,CLR,,0.00,WeatherDisplay:10.37,2013-11-11 20:02:00,
2013-11-11 15:04:00,62.6,62.6,30.17,SW,231,5.4,9.2,100,0.00,CLR,,0.00,WeatherDisplay:10.37,2013-11-11 20:04:00,
2013-11-11 15:05:00,62.6,62.6,30.17,WSW,242,3.2,8.1,100,0.00,CLR,,0.00,WeatherDisplay:10.37,2013-11-11 20:05:00,
2013-11-11 15:07:00,62.7,62.7,30.17,South,177,0.9,3.5,100,0.00,CLR,,0.00,WeatherDisplay:10.37,2013-11-11 20:07:00,
2013-11-11 15:09:00,62.8,62.8,30.16,South,183,1.0,5.8,100,0.00,CLR,,0.00,WeatherDisplay:10.37,2013-11-11 20:09:00,
2013-11-11 15:10:00,62.9,62.9,30.17,WSW,247,3.1,4.6,100,0.00,CLR,,0.00,WeatherDisplay:10.37,2013-11-11 20:10:00,
2013-11-11 15:12:00,62.9,62.9,30.17,SW,236,4.3,8.1,100,0.00,CLR,,0.00,WeatherDisplay:10.37,2013-11-11 20:12:00,
2013-11-11 15:15:00,62.9,62.9,30.17,SSW,205,2.4,9.2,100,0.00,CLR,,0.00,WeatherDisplay:10.37,2013-11-11 20:15:00,
2013-11-11 15:16:00,62.9,62.9,30.17,SSW,212,4.4,8.1,100,0.00,CLR,,0.00,WeatherDisplay:10.37,2013-11-11 20:16:00,
2013-11-11 15:17:00,62.9,62.9,30.17,SW,224,5.2,9.2,100,0.00,CLR,,0.00,WeatherDisplay:10.37,2013-11-11 20:17:00,
2013-11-11 15:18:00,63.0,63.0,30.17,South,189,3.5,9.2,100,0.00,CLR,,0.00,WeatherDisplay:10.37,2013-11-11 20:18:00,
2013-11-11 15:20:00,63.0,63.0,30.17,South,184,3.8,8.1,100,0.00,CLR,,0.00,WeatherDisplay:10.37,2013-11-11 20:20:00,
2013-11-11 15:21:00,63.1,63.1,30.16,South,191,3.3,6.9,100,0.00,CLR,,0.00,WeatherDisplay:10.37,2013-11-11 20:21:00,
2013-11-11 15:22:00,63.1,63.1,30.17,SW,217,0.2,3.5,100,0.00,CLR,,0.00,WeatherDisplay:10.37,2013-11-11 20:22:00,
2013-11-11 15:23:00,63.1,63.1,30.17,SW,216,0.6,4.0,100,0.00,CLR,,0.00,WeatherDisplay:10.37,2013-11-11 20:23:00,
2013-11-11 15:25:00,63.3,63.3,30.16,WSW,249,4.3,6.9,100,0.00,CLR,,0.00,WeatherDisplay:10.37,2013-11-11 20:25:00,
2013-11-11 15:26:00,63.2,63.2,30.16,WSW,247,2.5,6.9,100,0.00,CLR,,0.00,WeatherDisplay:10.37,2013-11-11 20:26:00,
2013-11-11 15:28:00,63.1,63.1,30.16,SW,217,3.0,8.0,100,0.00,CLR,,0.00,WeatherDisplay:10.37,2013-11-11 20:28:00,
2013-11-11 15:30:00,63.2,63.2,30.16,SSE,167,1.4,8.1,100,0.00,CLR,,0.00,WeatherDisplay:10.37,2013-11-11 20:30:00,
2013-11-11 15:31:00,63.2,63.2,30.17,West,266,4.7,9.2,100,0.00,CLR,,0.00,WeatherDisplay:10.37,2013-11-11 20:31:00,
2013-11-11 15:32:00,63.2,63.2,30.17,SSE,164,4.1,8.1,100,0.00,CLR,,0.00,WeatherDisplay:10.37,2013-11-11 20:32:00,
2013-11-11 15:33:00,63.2,63.2,30.17,South,187,4.6,8.1,100,0.00,CLR,,0.00,WeatherDisplay:10.37,2013-11-11 20:33:00,
2013-11-11 15:36:00,63.2,63.2,30.16,SSE,147,1.1,4.6,100,0.00,CLR,,0.00,WeatherDisplay:10.37,2013-11-11 20:36:00,
2013-11-11 15:37:00,63.3,63.3,30.16,SSW,209,6.6,10.4,100,0.00,CLR,,0.00,WeatherDisplay:10.37,2013-11-11 20:37:00,
2013-11-11 15:38:00,63.3,63.3,30.17,West,259,5.6,8.1,100,0.00,CLR,,0.00,WeatherDisplay:10.37,2013-11-11 20:38:00,
2013-11-11 15:41:00,63.3,63.3,30.16,SW,214,1.8,4.6,100,0.00,CLR,,0.00,WeatherDisplay:10.37,2013-11-11 20:41:00,
2013-11-11 15:42:00,63.2,63.2,30.16,South,188,2.3,6.0,100,0.00,CLR,,0.00,WeatherDisplay:10.37,2013-11-11 20:42:00,
2013-11-11 15:43:00,63.2,63.2,30.16,SSW,199,5.3,6.9,100,0.00,CLR,,0.00,WeatherDisplay:10.37,2013-11-11 20:43:00,
2013-11-11 15:44:00,63.2,63.2,30.16,SSW,198,5.1,6.9,100,0.00,CLR,,0.00,WeatherDisplay:10.37,2013-11-11 20:44:00,
2013-11-11 15:47:00,63.2,63.2,30.16,SW,221,2.8,6.9,100,0.00,CLR,,0.00,WeatherDisplay:10.37,2013-11-11 20:47:00,
2013-11-11 15:49:00,63.2,63.2,30.16,SW,230,5.4,6.9,100,0.00,CLR,,0.00,WeatherDisplay:10.37,2013-11-11 20:49:00,
2013-11-11 15:52:00,63.2,63.2,30.16,South,190,1.2,5.8,100,0.00,CLR,,0.00,WeatherDisplay:10.37,2013-11-11 20:52:00,
2013-11-11 15:54:00,63.2,63.2,30.16,SW,230,1.1,3.5,100,0.00,CLR,,0.00,WeatherDisplay:10.37,2013-11-11 20:54:00,
2013-11-11 15:57:00,63.3,63.3,30.16,South,181,2.9,5.8,100,0.00,CLR,,0.00,WeatherDisplay:10.37,2013-11-11 20:57:00,
2013-11-11 15:59:00,63.4,63.4,30.16,SSW,201,2.7,4.6,100,0.00,CLR,,0.00,WeatherDisplay:10.37,2013-11-11 20:59:00,
2013-11-11 16:02:00,63.5,63.5,30.16,SW,230,0.5,4.6,100,0.00,CLR,,0.00,WeatherDisplay:10.37,2013-11-11 21:02:00,
2013-11-11 16:04:00,63.5,63.5,30.16,SW,230,0.0,0.0,100,0.00,CLR,,0.00,WeatherDisplay:10.37,2013-11-11 21:04:00,
2013-11-11 16:05:00,63.5,63.5,30.16,SSW,198,1.2,3.5,100,0.00,CLR,,0.00,WeatherDisplay:10.37,2013-11-11 21:05:00,
2013-11-11 16:07:00,63.5,63.5,30.16,WSW,243,2.9,5.0,100,0.00,CLR,,0.00,WeatherDisplay:10.37,2013-11-11 21:07:00,
2013-11-11 16:09:00,63.4,63.4,30.16,SW,223,1.1,4.0,100,0.00,CLR,,0.00,WeatherDisplay:10.37,2013-11-11 21:09:00,
2013-11-11 16:10:00,63.4,63.4,30.16,SW,232,3.6,4.0,100,0.00,CLR,,0.00,WeatherDisplay:10.37,2013-11-11 21:10:00,
2013-11-11 16:11:00,63.4,63.4,30.16,WSW,242,2.3,4.0,100,0.00,CLR,,0.00,WeatherDisplay:10.37,2013-11-11 21:11:00,
2013-11-11 16:12:00,63.3,63.3,30.16,SSW,212,1.5,4.6,100,0.00,CLR,,0.00,WeatherDisplay:10.37,2013-11-11 21:12:00,
2013-11-11 16:13:00,63.2,63.2,30.15,SSW,212,0.0,4.6,100,0.00,CLR,,0.00,WeatherDisplay:10.37,2013-11-11 21:13:00,
2013-11-11 16:14:00,63.2,63.2,30.15,SSW,198,1.4,4.6,100,0.00,CLR,,0.00,WeatherDisplay:10.37,2013-11-11 21:14:00,
2013-11-11 16:16:00,63.3,63.3,30.16,SW,216,2.4,5.8,100,0.00,CLR,,0.00,WeatherDisplay:10.37,2013-11-11 21:16:00,
2013-11-11 16:17:00,63.3,63.3,30.15,SW,227,4.7,6.9,100,0.00,CLR,,0.00,WeatherDisplay:10.37,2013-11-11 21:17:00,
2013-11-11 16:18:00,63.3,63.3,30.15,SW,232,4.1,6.9,100,0.00,CLR,,0.00,WeatherDisplay:10.37,2013-11-11 21:18:00,
2013-11-11 16:19:00,63.2,63.2,30.16,SW,235,3.3,5.8,100,0.00,CLR,,0.00,WeatherDisplay:10.37,2013-11-11 21:19:00,
2013-11-11 16:21:00,63.2,63.2,30.16,SSW,213,4.7,9.2,100,0.00,CLR,,0.00,WeatherDisplay:10.37,2013-11-11 21:21:00,
2013-11-11 16:22:00,63.2,63.2,30.16,SSW,210,4.5,5.8,100,0.00,CLR,,0.00,WeatherDisplay:10.37,2013-11-11 21:22:00,
2013-11-11 16:23:00,63.3,63.3,30.16,SSW,203,3.9,6.9,100,0.00,CLR,,0.00,WeatherDisplay:10.37,2013-11-11 21:23:00,
2013-11-11 16:24:00,63.3,63.3,30.16,SSW,202,0.8,5.8,100,0.00,CLR,,0.00,WeatherDisplay:10.37,2013-11-11 21:24:00,
2013-11-11 16:26:00,63.4,63.4,30.16,South,179,1.0,5.0,100,0.00,CLR,,0.00,WeatherDisplay:10.37,2013-11-11 21:26:00,
2013-11-11 16:27:00,63.4,63.4,30.16,SSW,192,3.9,5.8,100,0.00,CLR,,0.00,WeatherDisplay:10.37,2013-11-11 21:27:00,
2013-11-11 16:28:00,63.5,63.5,30.15,SSW,201,4.4,8.1,100,0.00,CLR,,0.00,WeatherDisplay:10.37,2013-11-11 21:28:00,
2013-11-11 16:29:00,63.5,63.5,30.16,SSW,199,5.2,6.9,100,0.00,CLR,,0.00,WeatherDisplay:10.37,2013-11-11 21:29:00,
2013-11-11 16:32:00,63.5,63.5,30.16,South,185,3.2,4.0,100,0.00,CLR,,0.00,WeatherDisplay:10.37,2013-11-11 21:32:00,
2013-11-11 16:34:00,63.5,63.5,30.15,South,187,5.3,6.9,100,0.00,CLR,,0.00,WeatherDisplay:10.37,2013-11-11 21:34:00,
2013-11-11 16:35:00,63.5,63.5,30.15,SSW,200,2.9,8.1,100,0.00,CLR,,0.00,WeatherDisplay:10.37,2013-11-11 21:35:00,
2013-11-11 16:37:00,63.5,63.5,30.15,SSW,194,3.9,5.8,100,0.00,CLR,,0.00,WeatherDisplay:10.37,2013-11-11 21:37:00,
2013-11-11 16:39:00,63.5,63.5,30.15,SSW,198,2.1,6.0,100,0.00,CLR,,0.00,WeatherDisplay:10.37,2013-11-11 21:39:00,
2013-11-11 16:40:00,63.6,63.6,30.15,South,190,3.2,6.0,100,0.00,CLR,,0.00,WeatherDisplay:10.37,2013-11-11 21:40:00,
2013-11-11 16:42:00,63.6,63.6,30.15,SSW,201,4.7,8.1,100,0.00,CLR,,0.00,WeatherDisplay:10.37,2013-11-11 21:42:00,
2013-11-11 16:43:00,63.6,63.6,30.15,South,189,1.8,3.5,100,0.00,CLR,,0.00,WeatherDisplay:10.37,2013-11-11 21:43:00,
2013-11-11 16:45:00,63.6,63.6,30.15,SW,224,0.7,3.5,100,0.00,CLR,,0.00,WeatherDisplay:10.37,2013-11-11 21:45:00,
2013-11-11 16:46:00,63.6,63.6,30.15,SW,225,0.0,0.0,100,0.00,CLR,,0.00,WeatherDisplay:10.37,2013-11-11 21:46:00,
2013-11-11 16:47:00,63.6,63.6,30.15,SW,224,0.0,0.0,100,0.00,CLR,,0.00,WeatherDisplay:10.37,2013-11-11 21:47:00,
2013-11-11 16:48:00,63.6,63.6,30.15,SSW,209,1.3,4.6,100,0.00,CLR,,0.00,WeatherDisplay:10.37,2013-11-11 21:48:00,
2013-11-11 16:50:00,63.7,63.7,30.15,SSW,205,0.1,2.3,100,0.00,CLR,,0.00,WeatherDisplay:10.37,2013-11-11 21:50:00,
2013-11-11 16:51:00,63.7,63.7,30.15,SSW,205,0.0,2.3,100,0.00,CLR,,0.00,WeatherDisplay:10.37,2013-11-11 21:51:00,
2013-11-11 16:52:00,63.8,63.8,30.15,SSW,205,0.0,0.0,100,0.00,CLR,,0.00,WeatherDisplay:10.37,2013-11-11 21:52:00,
2013-11-11 16:53:00,63.9,63.9,30.15,SSW,205,0.7,3.5,100,0.00,CLR,,0.00,WeatherDisplay:10.37,2013-11-11 21:53:00,
2013-11-11 16:55:00,63.9,63.9,30.15,SSW,205,0.2,0.0,100,0.00,CLR,,0.00,WeatherDisplay:10.37,2013-11-11 21:55:00,
2013-11-11 16:56:00,63.9,63.9,30.15,SSW,205,0.2,2.3,100,0.00,CLR,,0.00,WeatherDisplay:10.37,2013-11-11 21:56:00,
2013-11-11 16:57:00,63.9,63.9,30.15,SSW,205,0.0,0.0,100,0.00,CLR,,0.00,WeatherDisplay:10.37,2013-11-11 21:57:00,
2013-11-11 16:59:00,63.9,63.9,30.15,SSW,206,0.0,0.0,100,0.00,CLR,,0.00,WeatherDisplay:10.37,2013-11-11 21:59:00,
2013-11-11 17:01:00,63.7,63.7,30.15,SSW,209,0.0,1.1,100,0.00,CLR,,0.00,WeatherDisplay:10.37,2013-11-11 22:01:00,
2013-11-11 17:03:00,63.7,63.7,30.15,SSW,209,0.0,0.0,100,0.00,CLR,,0.00,WeatherDisplay:10.37,2013-11-11 22:03:00,
2013-11-11 17:04:00,63.7,63.7,30.15,SSW,209,0.0,0.0,100,0.00,CLR,,0.00,WeatherDisplay:10.37,2013-11-11 22:04:00,
2013-11-11 17:06:00,63.6,63.6,30.15,SSW,209,0.0,0.0,100,0.00,CLR,,0.00,WeatherDisplay:10.37,2013-11-11 22:06:00,
2013-11-11 17:08:00,63.5,63.5,30.15,SSW,209,0.0,0.0,100,0.00,CLR,,0.00,WeatherDisplay:10.37,2013-11-11 22:08:00,
2013-11-11 17:09:00,63.4,63.4,30.15,SSW,209,0.0,0.0,100,0.00,CLR,,0.00,WeatherDisplay:10.37,2013-11-11 22:09:00,
2013-11-11 17:11:00,63.2,63.2,30.15,SSW,209,0.0,0.0,100,0.00,CLR,,0.00,WeatherDisplay:10.37,2013-11-11 22:11:00,
2013-11-11 17:12:00,63.2,63.2,30.15,SSW,209,0.0,0.0,100,0.00,CLR,,0.00,WeatherDisplay:10.37,2013-11-11 22:12:00,
2013-11-11 17:14:00,62.7,62.7,30.15,SSW,209,0.0,0.0,100,0.00,CLR,,0.00,WeatherDisplay:10.37,2013-11-11 22:14:00,
2013-11-11 17:15:00,62.5,62.5,30.15,SSW,209,0.0,0.0,100,0.00,CLR,,0.00,WeatherDisplay:10.37,2013-11-11 22:15:00,
2013-11-11 17:17:00,62.1,62.1,30.15,SSW,209,0.0,0.0,100,0.00,CLR,,0.00,WeatherDisplay:10.37,2013-11-11 22:17:00,
2013-11-11 17:18:00,61.8,61.8,30.15,SSW,209,0.0,0.0,100,0.00,CLR,,0.00,WeatherDisplay:10.37,2013-11-11 22:18:00,
2013-11-11 17:19:00,61.6,61.6,30.15,SSW,209,0.0,0.0,100,0.00,CLR,,0.00,WeatherDisplay:10.37,2013-11-11 22:19:00,
2013-11-11 17:21:00,61.2,61.2,30.15,SSW,209,0.0,0.0,100,0.00,CLR,,0.00,WeatherDisplay:10.37,2013-11-11 22:21:00,
2013-11-11 17:22:00,61.0,61.0,30.15,SSW,209,0.0,0.0,100,0.00,CLR,,0.00,WeatherDisplay:10.37,2013-11-11 22:22:00,
2013-11-11 17:23:00,60.8,60.8,30.15,SSW,209,0.0,0.0,100,0.00,CLR,,0.00,WeatherDisplay:10.37,2013-11-11 22:23:00,
2013-11-11 17:25:00,60.4,60.4,30.15,SSW,209,0.0,0.0,100,0.00,CLR,,0.00,WeatherDisplay:10.37,2013-11-11 22:25:00,
2013-11-11 17:26:00,60.2,60.2,30.15,SSW,209,0.0,0.0,100,0.00,CLR,,0.00,WeatherDisplay:10.37,2013-11-11 22:26:00,
2013-11-11 17:27:00,60.1,60.1,30.15,SSW,209,0.0,0.0,100,0.00,CLR,,0.00,WeatherDisplay:10.37,2013-11-11 22:27:00,
2013-11-11 17:28:00,60.0,60.0,30.15,SSW,209,0.0,0.0,100,0.00,CLR,,0.00,WeatherDisplay:10.37,2013-11-11 22:28:00,
2013-11-11 17:30:00,59.6,59.6,30.15,SSW,209,0.0,0.0,100,0.00,CLR,,0.00,WeatherDisplay:10.37,2013-11-11 22:30:00,
2013-11-11 17:31:00,59.4,59.4,30.15,SSW,209,0.0,0.0,100,0.00,CLR,,0.00,WeatherDisplay:10.37,2013-11-11 22:31:00,
2013-11-11 17:32:00,59.2,59.2,30.15,SSW,209,0.0,0.0,100,0.00,CLR,,0.00,WeatherDisplay:10.37,2013-11-11 22:32:00,
2013-11-11 17:33:00,59.2,59.2,30.15,SSW,209,0.0,0.0,100,0.00,CLR,,0.00,WeatherDisplay:10.37,2013-11-11 22:33:00,
2013-11-11 17:34:00,59.0,59.0,30.15,SSW,209,0.0,0.0,100,0.00,CLR,,0.00,WeatherDisplay:10.37,2013-11-11 22:34:00,
2013-11-11 17:36:00,58.7,58.7,30.15,SSW,209,0.0,0.0,100,0.00,CLR,,0.00,WeatherDisplay:10.37,2013-11-11 22:36:00,
2013-11-11 17:37:00,58.7,58.7,30.15,SSW,209,0.0,0.0,100,0.00,CLR,,0.00,WeatherDisplay:10.37,2013-11-11 22:37:00,
2013-11-11 17:38:00,58.6,58.6,30.15,SSW,209,0.0,0.0,100,0.00,CLR,,0.00,WeatherDisplay:10.37,2013-11-11 22:38:00,
2013-11-11 17:39:00,58.6,58.6,30.15,SSW,209,0.0,0.0,100,0.00,CLR,,0.00,WeatherDisplay:10.37,2013-11-11 22:39:00,
2013-11-11 17:41:00,58.5,58.5,30.15,SSW,209,0.0,0.0,100,0.00,CLR,,0.00,WeatherDisplay:10.37,2013-11-11 22:41:00,
2013-11-11 17:42:00,58.5,58.5,30.15,SSW,209,0.0,0.0,100,0.00,CLR,,0.00,WeatherDisplay:10.37,2013-11-11 22:42:00,
2013-11-11 17:43:00,58.4,58.4,30.15,SSW,209,0.0,0.0,100,0.00,CLR,,0.00,WeatherDisplay:10.37,2013-11-11 22:43:00,
2013-11-11 17:44:00,58.3,58.3,30.15,SSW,209,0.0,0.0,100,0.00,CLR,,0.00,WeatherDisplay:10.37,2013-11-11 22:44:00,
2013-11-11 17:46:00,58.1,58.1,30.15,SSW,209,0.0,0.0,100,0.00,CLR,,0.00,WeatherDisplay:10.37,2013-11-11 22:46:00,
2013-11-11 17:47:00,58.1,58.1,30.15,SSW,209,0.0,0.0,100,0.00,CLR,,0.00,WeatherDisplay:10.37,2013-11-11 22:47:00,
2013-11-11 17:48:00,58.0,58.0,30.15,SSW,209,0.0,0.0,100,0.00,CLR,,0.00,WeatherDisplay:10.37,2013-11-11 22:48:00,
2013-11-11 17:49:00,57.9,57.9,30.15,SSW,209,0.0,0.0,100,0.00,CLR,,0.00,WeatherDisplay:10.37,2013-11-11 22:49:00,
2013-11-11 17:51:00,57.7,57.7,30.15,SSW,209,0.0,0.0,100,0.00,CLR,,0.00,WeatherDisplay:10.37,2013-11-11 22:51:00,
2013-11-11 17:52:00,57.7,57.7,30.15,SSW,209,0.0,0.0,100,0.00,CLR,,0.00,WeatherDisplay:10.37,2013-11-11 22:52:00,
2013-11-11 17:53:00,57.6,57.6,30.15,SSW,209,0.0,0.0,100,0.00,CLR,,0.00,WeatherDisplay:10.37,2013-11-11 22:53:00,
2013-11-11 17:54:00,57.6,57.6,30.15,SSW,209,0.0,0.0,100,0.00,CLR,,0.00,WeatherDisplay:10.37,2013-11-11 22:54:00,
2013-11-11 17:55:00,57.4,57.4,30.15,SSW,209,0.0,0.0,100,0.00,CLR,,0.00,WeatherDisplay:10.37,2013-11-11 22:55:00,
2013-11-11 17:57:00,57.2,57.2,30.15,SSW,209,0.0,0.0,100,0.00,CLR,,0.00,WeatherDisplay:10.37,2013-11-11 22:57:00,
2013-11-11 17:58:00,57.1,57.1,30.15,SSW,209,0.0,0.0,100,0.00,CLR,,0.00,WeatherDisplay:10.37,2013-11-11 22:58:00,
2013-11-11 17:59:00,57.0,57.0,30.15,SSW,209,0.0,0.0,100,0.00,CLR,,0.00,WeatherDisplay:10.37,2013-11-11 22:59:00,
2013-11-11 18:00:00,56.9,56.9,30.15,SSW,209,0.0,0.0,100,0.00,CLR,,0.00,WeatherDisplay:10.37,2013-11-11 23:00:00,
2013-11-11 18:02:00,56.5,56.5,30.15,SSW,209,0.0,0.0,100,0.00,CLR,,0.00,WeatherDisplay:10.37,2013-11-11 23:02:00,
2013-11-11 18:03:00,56.4,56.4,30.15,SSW,209,0.0,0.0,100,0.00,CLR,,0.00,WeatherDisplay:10.37,2013-11-11 23:03:00,
2013-11-11 18:04:00,56.2,56.2,30.15,SSW,209,0.0,0.0,100,0.00,CLR,,0.00,WeatherDisplay:10.37,2013-11-11 23:04:00,
2013-11-11 18:05:00,56.3,56.3,30.15,SSW,209,0.0,0.0,100,0.00,CLR,,0.00,WeatherDisplay:10.37,2013-11-11 23:05:00,
2013-11-11 18:07:00,56.4,56.4,30.15,SSW,209,0.0,0.0,100,0.00,CLR,,0.00,WeatherDisplay:10.37,2013-11-11 23:07:00,
2013-11-11 18:08:00,56.4,56.4,30.15,SSW,209,0.0,0.0,100,0.00,CLR,,0.00,WeatherDisplay:10.37,2013-11-11 23:08:00,
2013-11-11 18:09:00,56.4,56.4,30.15,SSW,209,0.0,0.0,100,0.00,CLR,,0.00,WeatherDisplay:10.37,2013-11-11 23:09:00,
2013-11-11 18:10:00,56.4,56.4,30.15,SSW,209,0.0,0.0,100,0.00,CLR,,0.00,WeatherDisplay:10.37,2013-11-11 23:10:00,
2013-11-11 18:11:00,56.4,56.4,30.15,SSW,209,0.0,0.0,100,0.00,CLR,,0.00,WeatherDisplay:10.37,2013-11-11 23:11:00,
2013-11-11 18:13:00,56.3,56.3,30.15,SSW,209,0.0,0.0,100,0.00,CLR,,0.00,WeatherDisplay:10.37,2013-11-11 23:13:00,
2013-11-11 18:14:00,56.2,56.2,30.15,SSW,209,0.0,0.0,100,0.00,CLR,,0.00,WeatherDisplay:10.37,2013-11-11 23:14:00,
2013-11-11 18:15:00,56.1,56.1,30.15,SSW,209,0.0,0.0,100,0.00,CLR,,0.00,WeatherDisplay:10.37,2013-11-11 23:15:00,
2013-11-11 18:16:00,56.0,56.0,30.15,SSW,209,0.0,0.0,100,0.00,CLR,,0.00,WeatherDisplay:10.37,2013-11-11 23:16:00,
2013-11-11 18:18:00,55.7,55.7,30.15,SSW,209,0.0,0.0,100,0.00,CLR,,0.00,WeatherDisplay:10.37,2013-11-11 23:18:00,
2013-11-11 18:20:00,55.5,55.5,30.15,SSW,209,0.0,0.0,100,0.00,CLR,,0.00,WeatherDisplay:10.37,2013-11-11 23:20:00,
2013-11-11 18:21:00,55.3,55.3,30.15,SSW,209,0.0,0.0,100,0.00,CLR,,0.00,WeatherDisplay:10.37,2013-11-11 23:21:00,
2013-11-11 18:22:00,55.1,55.1,30.15,SSW,209,0.0,0.0,100,0.00,CLR,,0.00,WeatherDisplay:10.37,2013-11-11 23:22:00,
2013-11-11 18:23:00,55.1,55.1,30.15,SSW,209,0.0,0.0,100,0.00,CLR,,0.00,WeatherDisplay:10.37,2013-11-11 23:23:00,
2013-11-11 18:25:00,55.1,55.1,30.15,SSW,209,0.0,0.0,100,0.00,CLR,,0.00,WeatherDisplay:10.37,2013-11-11 23:25:00,
2013-11-11 18:26:00,55.0,55.0,30.15,SSW,209,0.0,0.0,100,0.00,CLR,,0.00,WeatherDisplay:10.37,2013-11-11 23:26:00,
2013-11-11 18:27:00,55.0,55.0,30.15,SSW,209,0.0,0.0,100,0.00,CLR,,0.00,WeatherDisplay:10.37,2013-11-11 23:27:00,
2013-11-11 18:29:00,54.9,54.9,30.15,SSW,209,0.0,0.0,100,0.00,CLR,,0.00,WeatherDisplay:10.37,2013-11-11 23:29:00,
2013-11-11 18:30:00,55.0,55.0,30.15,SSW,209,0.0,0.0,100,0.00,CLR,,0.00,WeatherDisplay:10.37,2013-11-11 23:30:00,
2013-11-11 18:31:00,55.0,55.0,30.15,SSW,209,0.0,0.0,100,0.00,CLR,,0.00,WeatherDisplay:10.37,2013-11-11 23:31:00,
2013-11-11 18:32:00,54.9,54.9,30.15,SSW,209,0.0,0.0,100,0.00,CLR,,0.00,WeatherDisplay:10.37,2013-11-11 23:32:00,
2013-11-11 18:34:00,54.8,54.8,30.15,SSW,209,0.0,0.0,100,0.00,CLR,,0.00,WeatherDisplay:10.37,2013-11-11 23:34:00,
2013-11-11 18:35:00,54.7,54.7,30.15,SSW,209,0.0,0.0,100,0.00,CLR,,0.00,WeatherDisplay:10.37,2013-11-11 23:35:00,
2013-11-11 18:36:00,54.7,54.7,30.15,SSW,209,0.0,0.0,100,0.00,CLR,,0.00,WeatherDisplay:10.37,2013-11-11 23:36:00,
2013-11-11 18:37:00,54.6,54.6,30.15,SSW,209,0.0,0.0,100,0.00,CLR,,0.00,WeatherDisplay:10.37,2013-11-11 23:37:00,
2013-11-11 18:40:00,54.5,54.5,30.15,SSW,209,0.0,0.0,100,0.00,CLR,,0.00,WeatherDisplay:10.37,2013-11-11 23:40:00,
2013-11-11 18:41:00,54.4,54.4,30.15,SSW,209,0.0,0.0,100,0.00,CLR,,0.00,WeatherDisplay:10.37,2013-11-11 23:41:00,
2013-11-11 18:42:00,54.3,54.3,30.15,SSW,209,0.0,0.0,100,0.00,CLR,,0.00,WeatherDisplay:10.37,2013-11-11 23:42:00,
2013-11-11 18:43:00,54.3,54.3,30.15,SSW,209,0.0,0.0,100,0.00,CLR,,0.00,WeatherDisplay:10.37,2013-11-11 23:43:00,
2013-11-11 18:45:00,54.2,54.2,30.15,SSW,209,0.0,0.0,100,0.00,CLR,,0.00,WeatherDisplay:10.37,2013-11-11 23:45:00,
2013-11-11 18:46:00,54.2,54.2,30.15,SSW,209,0.0,0.0,100,0.00,CLR,,0.00,WeatherDisplay:10.37,2013-11-11 23:46:00,
2013-11-11 18:47:00,54.2,54.2,30.15,SSW,209,0.0,0.0,100,0.00,CLR,,0.00,WeatherDisplay:10.37,2013-11-11 23:47:00,
2013-11-11 18:48:00,54.1,54.1,30.15,SSW,209,0.0,0.0,100,0.00,CLR,,0.00,WeatherDisplay:10.37,2013-11-11 23:48:00,
2013-11-11 18:50:00,54.1,54.1,30.15,SSW,209,0.0,0.0,100,0.00,CLR,,0.00,WeatherDisplay:10.37,2013-11-11 23:50:00,
2013-11-11 18:51:00,54.1,54.1,30.15,SSW,209,0.0,0.0,100,0.00,CLR,,0.00,WeatherDisplay:10.37,2013-11-11 23:51:00,
2013-11-11 18:53:00,54.0,54.0,30.15,SSW,209,0.0,0.0,100,0.00,CLR,,0.00,WeatherDisplay:10.37,2013-11-11 23:53:00,
2013-11-11 18:56:00,53.7,53.7,30.15,SSW,209,0.0,0.0,100,0.00,CLR,,0.00,WeatherDisplay:10.37,2013-11-11 23:56:00,
2013-11-11 18:58:00,53.3,53.3,30.15,SSW,209,0.0,0.0,100,0.00,CLR,,0.00,WeatherDisplay:10.37,2013-11-11 23:58:00,
2013-11-11 19:01:00,53.2,53.2,30.15,SSW,209,0.0,0.0,100,0.00,CLR,,0.00,WeatherDisplay:10.37,2013-11-12 00:01:00,
2013-11-11 19:02:00,53.2,53.2,30.15,SSW,209,0.0,0.0,100,0.00,CLR,,0.00,WeatherDisplay:10.37,2013-11-12 00:02:00,
2013-11-11 19:03:00,53.1,53.1,30.15,SSW,209,0.0,0.0,100,0.00,CLR,,0.00,WeatherDisplay:10.37,2013-11-12 00:03:00,
2013-11-11 19:04:00,53.0,53.0,30.15,SSW,209,0.0,0.0,100,0.00,CLR,,0.00,WeatherDisplay:10.37,2013-11-12 00:04:00,
2013-11-11 19:06:00,52.8,52.8,30.15,SSW,209,0.0,0.0,100,0.00,CLR,,0.00,WeatherDisplay:10.37,2013-11-12 00:06:00,
2013-11-11 19:07:00,52.7,52.7,30.15,SSW,209,0.0,0.0,100,0.00,CLR,,0.00,WeatherDisplay:10.37,2013-11-12 00:07:00,
2013-11-11 19:08:00,52.7,52.7,30.15,SSW,209,0.0,0.0,100,0.00,CLR,,0.00,WeatherDisplay:10.37,2013-11-12 00:08:00,
2013-11-11 19:09:00,52.7,52.7,30.15,SSW,209,0.0,0.0,100,0.00,CLR,,0.00,WeatherDisplay:10.37,2013-11-12 00:09:00,
2013-11-11 19:11:00,52.7,52.7,30.15,SSW,209,0.0,0.0,100,0.00,CLR,,0.00,WeatherDisplay:10.37,2013-11-12 00:11:00,
2013-11-11 19:12:00,52.7,52.7,30.15,SSW,209,0.0,0.0,100,0.00,CLR,,0.00,WeatherDisplay:10.37,2013-11-12 00:12:00,
2013-11-11 19:13:00,52.6,52.6,30.15,SSW,209,0.0,0.0,100,0.00,CLR,,0.00,WeatherDisplay:10.37,2013-11-12 00:13:00,
2013-11-11 19:14:00,52.6,52.6,30.15,SSW,209,0.0,0.0,100,0.00,CLR,,0.00,WeatherDisplay:10.37,2013-11-12 00:14:00,
2013-11-11 19:17:00,52.4,52.4,30.15,SSW,209,0.0,0.0,100,0.00,CLR,,0.00,WeatherDisplay:10.37,2013-11-12 00:17:00,
2013-11-11 19:18:00,52.5,52.5,30.16,SSW,209,0.0,0.0,100,0.00,CLR,,0.00,WeatherDisplay:10.37,2013-11-12 00:18:00,
2013-11-11 19:19:00,52.5,52.5,30.16,SSW,209,0.0,0.0,100,0.00,CLR,,0.00,WeatherDisplay:10.37,2013-11-12 00:19:00,
2013-11-11 19:22:00,52.5,52.5,30.16,SSW,209,0.0,0.0,100,0.00,CLR,,0.00,WeatherDisplay:10.37,2013-11-12 00:22:00,
2013-11-11 19:23:00,52.5,52.5,30.15,SSW,209,0.0,0.0,100,0.00,CLR,,0.00,WeatherDisplay:10.37,2013-11-12 00:23:00,
2013-11-11 19:24:00,52.3,52.3,30.15,SSW,209,0.0,0.0,100,0.00,CLR,,0.00,WeatherDisplay:10.37,2013-11-12 00:24:00,
2013-11-11 19:26:00,52.2,52.2,30.15,SSW,209,0.0,0.0,100,0.00,CLR,,0.00,WeatherDisplay:10.37,2013-11-12 00:26:00,
2013-11-11 19:27:00,52.2,52.2,30.15,SSW,209,0.0,0.0,100,0.00,CLR,,0.00,WeatherDisplay:10.37,2013-11-12 00:27:00,
2013-11-11 19:28:00,52.3,52.3,30.15,SSW,209,0.0,0.0,100,0.00,CLR,,0.00,WeatherDisplay:10.37,2013-11-12 00:28:00,
2013-11-11 19:29:00,52.3,52.3,30.15,SSW,209,0.0,0.0,100,0.00,CLR,,0.00,WeatherDisplay:10.37,2013-11-12 00:29:00,
2013-11-11 19:32:00,52.2,52.2,30.16,SSW,209,0.0,0.0,100,0.00,CLR,,0.00,WeatherDisplay:10.37,2013-11-12 00:32:00,
2013-11-11 19:33:00,52.2,52.2,30.15,SSW,209,0.0,0.0,100,0.00,CLR,,0.00,WeatherDisplay:10.37,2013-11-12 00:33:00,
2013-11-11 19:34:00,52.2,52.2,30.15,SSW,209,0.0,0.0,100,0.00,CLR,,0.00,WeatherDisplay:10.37,2013-11-12 00:34:00,
2013-11-11 19:35:00,52.2,52.2,30.15,SSW,209,0.0,0.0,100,0.00,CLR,,0.00,WeatherDisplay:10.37,2013-11-12 00:35:00,
2013-11-11 19:37:00,52.3,52.3,30.15,SSW,209,0.0,0.0,100,0.00,CLR,,0.00,WeatherDisplay:10.37,2013-11-12 00:37:00,
2013-11-11 19:39:00,52.1,52.1,30.15,SSW,209,0.0,0.0,100,0.00,CLR,,0.00,WeatherDisplay:10.37,2013-11-12 00:39:00,
2013-11-11 19:41:00,51.9,51.9,30.15,SSW,209,0.0,0.0,100,0.00,CLR,,0.00,WeatherDisplay:10.37,2013-11-12 00:41:00,
2013-11-11 19:42:00,51.9,51.9,30.15,SSW,209,0.0,0.0,100,0.00,CLR,,0.00,WeatherDisplay:10.37,2013-11-12 00:42:00,
2013-11-11 19:44:00,51.8,51.8,30.15,SSW,209,0.0,0.0,100,0.00,CLR,,0.00,WeatherDisplay:10.37,2013-11-12 00:44:00,
2013-11-11 19:45:00,51.8,51.8,30.15,SSW,209,0.0,0.0,100,0.00,CLR,,0.00,WeatherDisplay:10.37,2013-11-12 00:45:00,
2013-11-11 19:46:00,51.7,51.7,30.15,SSW,209,0.0,0.0,100,0.00,CLR,,0.00,WeatherDisplay:10.37,2013-11-12 00:46:00,
2013-11-11 19:47:00,51.7,51.7,30.15,SSW,209,0.0,0.0,100,0.00,CLR,,0.00,WeatherDisplay:10.37,2013-11-12 00:47:00,
2013-11-11 19:49:00,51.6,51.6,30.15,SSW,209,0.0,0.0,100,0.00,CLR,,0.00,WeatherDisplay:10.37,2013-11-12 00:49:00,
2013-11-11 19:50:00,51.6,51.6,30.15,SSW,209,0.0,0.0,100,0.00,CLR,,0.00,WeatherDisplay:10.37,2013-11-12 00:50:00,
2013-11-11 19:51:00,51.4,51.4,30.15,SSW,209,0.0,0.0,100,0.00,CLR,,0.00,WeatherDisplay:10.37,2013-11-12 00:51:00,
2013-11-11 19:52:00,51.4,51.4,30.15,SSW,209,0.0,0.0,100,0.00,CLR,,0.00,WeatherDisplay:10.37,2013-11-12 00:52:00,
2013-11-11 19:53:00,51.3,51.3,30.15,SSW,209,0.0,0.0,100,0.00,CLR,,0.00,WeatherDisplay:10.37,2013-11-12 00:53:00,
2013-11-11 19:54:00,51.2,51.2,30.15,SSW,209,0.0,0.0,100,0.00,CLR,,0.00,WeatherDisplay:10.37,2013-11-12 00:54:00,
2013-11-11 19:55:00,51.2,51.2,30.15,SSW,209,0.0,0.0,100,0.00,CLR,,0.00,WeatherDisplay:10.37,2013-11-12 00:55:00,
2013-11-11 19:56:00,51.1,51.1,30.15,SSW,209,0.0,0.0,100,0.00,CLR,,0.00,WeatherDisplay:10.37,2013-11-12 00:56:00,
2013-11-11 19:57:00,51.1,51.1,30.15,SSW,209,0.0,0.0,100,0.00,CLR,,0.00,WeatherDisplay:10.37,2013-11-12 00:57:00,
2013-11-11 19:58:00,51.0,51.0,30.15,SSW,209,0.0,0.0,100,0.00,CLR,,0.00,WeatherDisplay:10.37,2013-11-12 00:58:00,
2013-11-11 20:00:00,50.9,50.9,30.15,SSW,209,0.0,0.0,100,0.00,CLR,,0.00,WeatherDisplay:10.37,2013-11-12 01:00:00,
2013-11-11 20:01:00,50.7,50.7,30.15,SSW,209,0.0,0.0,100,0.00,FEW,,0.00,WeatherDisplay:10.37,2013-11-12 01:01:00,
2013-11-11 20:02:00,50.7,50.7,30.15,SSW,209,0.0,0.0,100,0.00,FEW,,0.00,WeatherDisplay:10.37,2013-11-12 01:02:00,
2013-11-11 20:03:00,50.6,50.6,30.15,SSW,209,0.0,0.0,100,0.00,FEW,,0.00,WeatherDisplay:10.37,2013-11-12 01:03:00,
2013-11-11 20:05:00,50.5,50.5,30.15,SSW,209,0.0,0.0,100,0.00,FEW,,0.00,WeatherDisplay:10.37,2013-11-12 01:05:00,
2013-11-11 20:06:00,50.5,50.5,30.15,SSW,209,0.0,0.0,100,0.00,FEW,,0.00,WeatherDisplay:10.37,2013-11-12 01:06:00,
2013-11-11 20:07:00,50.6,50.6,30.15,SSW,209,0.0,0.0,100,0.00,FEW,,0.00,WeatherDisplay:10.37,2013-11-12 01:07:00,
2013-11-11 20:08:00,50.6,50.6,30.15,SSW,209,0.0,0.0,100,0.00,FEW,,0.00,WeatherDisplay:10.37,2013-11-12 01:08:00,
2013-11-11 20:09:00,50.6,50.6,30.15,SSW,209,0.0,0.0,100,0.00,FEW,,0.00,WeatherDisplay:10.37,2013-11-12 01:09:00,
2013-11-11 20:10:00,50.6,50.6,30.15,SSW,209,0.0,0.0,100,0.00,FEW,,0.00,WeatherDisplay:10.37,2013-11-12 01:10:00,
2013-11-11 20:11:00,50.6,50.6,30.15,SSW,209,0.0,0.0,100,0.00,FEW,,0.00,WeatherDisplay:10.37,2013-11-12 01:11:00,
2013-11-11 20:12:00,50.6,50.6,30.15,SSW,209,0.0,0.0,100,0.00,FEW,,0.00,WeatherDisplay:10.37,2013-11-12 01:12:00,
2013-11-11 20:13:00,50.6,50.6,30.15,SSW,209,0.0,0.0,100,0.00,FEW,,0.00,WeatherDisplay:10.37,2013-11-12 01:13:00,
2013-11-11 20:14:00,50.6,50.6,30.15,SSW,209,0.0,0.0,100,0.00,FEW,,0.00,WeatherDisplay:10.37,2013-11-12 01:14:00,
2013-11-11 20:15:00,50.6,50.6,30.15,SSW,209,0.0,0.0,100,0.00,FEW,,0.00,WeatherDisplay:10.37,2013-11-12 01:15:00,
2013-11-11 20:17:00,50.5,50.5,30.15,SSW,209,0.0,0.0,100,0.00,FEW,,0.00,WeatherDisplay:10.37,2013-11-12 01:17:00,
2013-11-11 20:18:00,50.4,50.4,30.15,SSW,209,0.0,0.0,100,0.00,FEW,,0.00,WeatherDisplay:10.37,2013-11-12 01:18:00,
2013-11-11 20:19:00,50.3,50.3,30.15,SSW,209,0.0,0.0,100,0.00,FEW,,0.00,WeatherDisplay:10.37,2013-11-12 01:19:00,
2013-11-11 20:20:00,50.1,50.1,30.15,SSW,209,0.0,0.0,100,0.00,FEW,,0.00,WeatherDisplay:10.37,2013-11-12 01:20:00,
2013-11-11 20:21:00,50.0,50.0,30.15,SSW,209,0.0,0.0,100,0.00,FEW,,0.00,WeatherDisplay:10.37,2013-11-12 01:21:00,
2013-11-11 20:22:00,49.9,49.9,30.15,SSW,209,0.0,0.0,100,0.00,FEW,,0.00,WeatherDisplay:10.37,2013-11-12 01:22:00,
2013-11-11 20:23:00,49.9,49.9,30.15,SSW,209,0.0,0.0,100,0.00,FEW,,0.00,WeatherDisplay:10.37,2013-11-12 01:23:00,
2013-11-11 20:24:00,49.9,49.9,30.15,SSW,209,0.0,0.0,100,0.00,FEW,,0.00,WeatherDisplay:10.37,2013-11-12 01:24:00,
2013-11-11 20:25:00,50.0,50.0,30.15,SSW,209,0.0,0.0,100,0.00,FEW,,0.00,WeatherDisplay:10.37,2013-11-12 01:25:00,
2013-11-11 20:26:00,50.0,50.0,30.15,SSW,209,0.0,0.0,100,0.00,FEW,,0.00,WeatherDisplay:10.37,2013-11-12 01:26:00,
2013-11-11 20:28:00,50.1,50.1,30.15,SSW,209,0.0,0.0,100,0.00,FEW,,0.00,WeatherDisplay:10.37,2013-11-12 01:28:00,
2013-11-11 20:29:00,50.1,50.1,30.14,SSW,209,0.0,0.0,100,0.00,FEW,,0.00,WeatherDisplay:10.37,2013-11-12 01:29:00,
2013-11-11 20:31:00,50.0,50.0,30.14,SSW,209,0.0,0.0,100,0.00,FEW,,0.00,WeatherDisplay:10.37,2013-11-12 01:31:00,
2013-11-11 20:32:00,50.0,50.0,30.14,SSW,209,0.0,0.0,100,0.00,FEW,,0.00,WeatherDisplay:10.37,2013-11-12 01:32:00,
2013-11-11 20:33:00,50.0,50.0,30.14,SSW,209,0.0,0.0,100,0.00,FEW,,0.00,WeatherDisplay:10.37,2013-11-12 01:33:00,
2013-11-11 20:34:00,50.0,50.0,30.15,SSW,209,0.0,0.0,100,0.00,FEW,,0.00,WeatherDisplay:10.37,2013-11-12 01:34:00,
2013-11-11 20:35:00,50.1,50.1,30.15,SSW,209,0.0,0.0,100,0.00,FEW,,0.00,WeatherDisplay:10.37,2013-11-12 01:35:00,
2013-11-11 20:36:00,50.1,50.1,30.15,SSW,209,0.0,0.0,100,0.00,FEW,,0.00,WeatherDisplay:10.37,2013-11-12 01:36:00,
2013-11-11 20:37:00,50.1,50.1,30.15,SSW,209,0.0,0.0,100,0.00,FEW,,0.00,WeatherDisplay:10.37,2013-11-12 01:37:00,
2013-11-11 20:38:00,50.1,50.1,30.15,SSW,209,0.0,0.0,100,0.00,FEW,,0.00,WeatherDisplay:10.37,2013-11-12 01:38:00,
2013-11-11 20:40:00,50.1,50.1,30.15,SSW,209,0.0,0.0,100,0.00,FEW,,0.00,WeatherDisplay:10.37,2013-11-12 01:40:00,
2013-11-11 20:42:00,50.2,50.2,30.15,SSW,209,0.0,0.0,100,0.00,FEW,,0.00,WeatherDisplay:10.37,2013-11-12 01:42:00,
2013-11-11 20:43:00,50.2,50.2,30.15,SSW,209,0.0,0.0,100,0.00,FEW,,0.00,WeatherDisplay:10.37,2013-11-12 01:43:00,
2013-11-11 20:44:00,50.2,50.2,30.15,SSW,209,0.0,0.0,100,0.00,FEW,,0.00,WeatherDisplay:10.37,2013-11-12 01:44:00,
2013-11-11 20:45:00,50.2,50.2,30.15,SSW,209,0.0,0.0,100,0.00,FEW,,0.00,WeatherDisplay:10.37,2013-11-12 01:45:00,
2013-11-11 20:47:00,50.2,50.2,30.15,SSW,209,0.0,0.0,100,0.00,FEW,,0.00,WeatherDisplay:10.37,2013-11-12 01:47:00,
2013-11-11 20:48:00,50.2,50.2,30.15,SSW,209,0.0,0.0,100,0.00,FEW,,0.00,WeatherDisplay:10.37,2013-11-12 01:48:00,
2013-11-11 20:49:00,50.2,50.2,30.15,SSW,209,0.0,0.0,100,0.00,FEW,,0.00,WeatherDisplay:10.37,2013-11-12 01:49:00,
2013-11-11 20:50:00,50.3,50.3,30.15,SSW,209,0.0,0.0,100,0.00,FEW,,0.00,WeatherDisplay:10.37,2013-11-12 01:50:00,
2013-11-11 20:52:00,50.3,50.3,30.15,SSW,209,0.0,0.0,100,0.00,FEW,,0.00,WeatherDisplay:10.37,2013-11-12 01:52:00,
2013-11-11 20:54:00,50.2,50.2,30.15,SSW,209,0.0,0.0,100,0.00,FEW,,0.00,WeatherDisplay:10.37,2013-11-12 01:54:00,
2013-11-11 20:55:00,50.2,50.2,30.15,SSW,209,0.0,0.0,100,0.00,FEW,,0.00,WeatherDisplay:10.37,2013-11-12 01:55:00,
2013-11-11 20:58:00,50.2,50.2,30.15,SSW,209,0.0,0.0,100,0.00,FEW,,0.00,WeatherDisplay:10.37,2013-11-12 01:58:00,
2013-11-11 20:59:00,50.2,50.2,30.15,SSW,209,0.0,0.0,100,0.00,FEW,,0.00,WeatherDisplay:10.37,2013-11-12 01:59:00,
2013-11-11 21:00:00,50.2,50.2,30.15,SSW,209,0.0,0.0,100,0.00,FEW,,0.00,WeatherDisplay:10.37,2013-11-12 02:00:00,
2013-11-11 21:03:00,50.2,50.2,30.15,SSW,209,0.0,0.0,100,0.00,FEW,,0.00,WeatherDisplay:10.37,2013-11-12 02:03:00,
2013-11-11 21:04:00,50.2,50.2,30.15,SSW,209,0.0,0.0,100,0.00,FEW,,0.00,WeatherDisplay:10.37,2013-11-12 02:04:00,
2013-11-11 21:05:00,50.2,50.2,30.15,SSW,209,0.0,0.0,100,0.00,FEW,,0.00,WeatherDisplay:10.37,2013-11-12 02:05:00,
2013-11-11 21:06:00,50.2,50.2,30.15,SSW,209,0.0,0.0,100,0.00,FEW,,0.00,WeatherDisplay:10.37,2013-11-12 02:06:00,
2013-11-11 21:08:00,50.3,50.3,30.15,SSW,209,0.0,0.0,100,0.00,FEW,,0.00,WeatherDisplay:10.37,2013-11-12 02:08:00,
2013-11-11 21:09:00,50.3,50.3,30.15,SSW,209,0.0,0.0,100,0.00,FEW,,0.00,WeatherDisplay:10.37,2013-11-12 02:09:00,
2013-11-11 21:10:00,50.4,50.4,30.15,SSW,209,0.0,0.0,100,0.00,FEW,,0.00,WeatherDisplay:10.37,2013-11-12 02:10:00,
2013-11-11 21:11:00,50.4,50.4,30.15,SSW,209,0.0,0.0,100,0.00,FEW,,0.00,WeatherDisplay:10.37,2013-11-12 02:11:00,
2013-11-11 21:14:00,50.4,50.4,30.15,SSW,209,0.0,0.0,100,0.00,FEW,,0.00,WeatherDisplay:10.37,2013-11-12 02:14:00,
2013-11-11 21:15:00,50.5,50.5,30.15,SSW,209,0.0,0.0,100,0.00,FEW,,0.00,WeatherDisplay:10.37,2013-11-12 02:15:00,
2013-11-11 21:16:00,50.5,50.5,30.15,SSW,209,0.0,0.0,100,0.00,BKN,,0.00,WeatherDisplay:10.37,2013-11-12 02:16:00,
2013-11-11 21:17:00,50.6,50.6,30.15,SSW,209,0.0,0.0,100,0.00,BKN,,0.00,WeatherDisplay:10.37,2013-11-12 02:17:00,
2013-11-11 21:19:00,50.6,50.6,30.15,SSW,209,0.0,0.0,100,0.00,BKN,,0.00,WeatherDisplay:10.37,2013-11-12 02:19:00,
2013-11-11 21:20:00,50.7,50.7,30.15,SSW,209,0.0,0.0,100,0.00,BKN,,0.00,WeatherDisplay:10.37,2013-11-12 02:20:00,
2013-11-11 21:21:00,50.6,50.6,30.15,SSW,209,0.0,0.0,100,0.00,BKN,,0.00,WeatherDisplay:10.37,2013-11-12 02:21:00,
2013-11-11 21:22:00,50.6,50.6,30.15,SSW,209,0.0,0.0,100,0.00,BKN,,0.00,WeatherDisplay:10.37,2013-11-12 02:22:00,
2013-11-11 21:24:00,50.5,50.5,30.15,SSW,209,0.0,0.0,100,0.00,BKN,,0.00,WeatherDisplay:10.37,2013-11-12 02:24:00,
2013-11-11 21:25:00,50.4,50.4,30.14,SSW,209,0.0,0.0,100,0.00,BKN,,0.00,WeatherDisplay:10.37,2013-11-12 02:25:00,
2013-11-11 21:26:00,50.4,50.4,30.15,SSW,209,0.0,0.0,100,0.00,BKN,,0.00,WeatherDisplay:10.37,2013-11-12 02:26:00,
2013-11-11 21:27:00,50.4,50.4,30.14,SSW,209,0.0,0.0,100,0.00,BKN,,0.00,WeatherDisplay:10.37,2013-11-12 02:27:00,
2013-11-11 21:29:00,50.5,50.5,30.14,SSW,209,0.0,0.0,100,0.00,BKN,,0.00,WeatherDisplay:10.37,2013-11-12 02:29:00,
2013-11-11 21:30:00,50.6,50.6,30.15,SSW,209,0.0,0.0,100,0.00,BKN,,0.00,WeatherDisplay:10.37,2013-11-12 02:30:00,
2013-11-11 21:31:00,50.6,50.6,30.15,SSW,209,0.0,0.0,100,0.00,BKN,,0.00,WeatherDisplay:10.37,2013-11-12 02:31:00,
2013-11-11 21:32:00,50.6,50.6,30.15,SSW,209,0.0,0.0,100,0.00,BKN,,0.00,WeatherDisplay:10.37,2013-11-12 02:32:00,
2013-11-11 21:34:00,50.7,50.7,30.15,SSW,209,0.0,0.0,100,0.00,BKN,,0.00,WeatherDisplay:10.37,2013-11-12 02:34:00,
2013-11-11 21:36:00,50.7,50.7,30.15,SSW,209,0.0,0.0,100,0.00,BKN,,0.00,WeatherDisplay:10.37,2013-11-12 02:36:00,
2013-11-11 21:38:00,50.7,50.7,30.15,SSW,209,0.0,0.0,100,0.00,BKN,,0.00,WeatherDisplay:10.37,2013-11-12 02:38:00,
2013-11-11 21:40:00,50.8,50.8,30.15,SSW,209,0.0,0.0,100,0.00,BKN,,0.00,WeatherDisplay:10.37,2013-11-12 02:40:00,
2013-11-11 21:41:00,50.8,50.8,30.15,SSW,209,0.0,0.0,100,0.00,BKN,,0.00,WeatherDisplay:10.37,2013-11-12 02:41:00,
2013-11-11 21:43:00,50.8,50.8,30.15,SSW,209,0.0,0.0,100,0.00,BKN,,0.00,WeatherDisplay:10.37,2013-11-12 02:43:00,
2013-11-11 21:45:00,50.9,50.9,30.15,SSW,209,0.0,0.0,100,0.00,BKN,,0.00,WeatherDisplay:10.37,2013-11-12 02:45:00,
2013-11-11 21:46:00,50.9,50.9,30.15,SSW,209,0.0,0.0,100,0.00,BKN,,0.00,WeatherDisplay:10.37,2013-11-12 02:46:00,
2013-11-11 21:47:00,50.8,50.8,30.15,SSW,209,0.0,0.0,100,0.00,BKN,,0.00,WeatherDisplay:10.37,2013-11-12 02:47:00,
2013-11-11 21:48:00,50.8,50.8,30.15,SSW,209,0.0,0.0,100,0.00,BKN,,0.00,WeatherDisplay:10.37,2013-11-12 02:48:00,
2013-11-11 21:51:00,50.7,50.7,30.16,SSW,209,0.0,0.0,100,0.00,BKN,,0.00,WeatherDisplay:10.37,2013-11-12 02:51:00,
2013-11-11 21:52:00,50.6,50.6,30.15,SSW,209,0.0,0.0,100,0.00,BKN,,0.00,WeatherDisplay:10.37,2013-11-12 02:52:00,
2013-11-11 21:53:00,50.7,50.7,30.15,SSW,209,0.0,0.0,100,0.00,BKN,,0.00,WeatherDisplay:10.37,2013-11-12 02:53:00,
2013-11-11 21:56:00,50.7,50.7,30.15,SSW,209,0.0,0.0,100,0.00,BKN,,0.00,WeatherDisplay:10.37,2013-11-12 02:56:00,
2013-11-11 21:57:00,50.8,50.8,30.15,SSW,209,0.0,0.0,100,0.00,BKN,,0.00,WeatherDisplay:10.37,2013-11-12 02:57:00,
2013-11-11 21:59:00,50.8,50.8,30.15,SSW,209,0.0,0.0,100,0.00,BKN,,0.00,WeatherDisplay:10.37,2013-11-12 02:59:00,
2013-11-11 22:02:00,50.8,50.8,30.15,SSW,209,0.0,0.0,100,0.00,BKN,,0.00,WeatherDisplay:10.37,2013-11-12 03:02:00,
2013-11-11 22:03:00,50.8,50.8,30.15,SSW,209,0.0,0.0,100,0.00,BKN,,0.00,WeatherDisplay:10.37,2013-11-12 03:03:00,
2013-11-11 22:04:00,50.8,50.8,30.15,SSW,209,0.0,0.0,100,0.00,BKN,,0.00,WeatherDisplay:10.37,2013-11-12 03:04:00,
2013-11-11 22:07:00,50.8,50.8,30.15,SSW,209,0.0,0.0,100,0.00,BKN,,0.00,WeatherDisplay:10.37,2013-11-12 03:07:00,
2013-11-11 22:08:00,50.8,50.8,30.15,SSW,209,0.0,0.0,100,0.00,BKN,,0.00,WeatherDisplay:10.37,2013-11-12 03:08:00,
2013-11-11 22:09:00,50.8,50.8,30.15,SSW,209,0.0,0.0,100,0.00,BKN,,0.00,WeatherDisplay:10.37,2013-11-12 03:09:00,
2013-11-11 22:10:00,50.8,50.8,30.15,SSW,209,0.0,0.0,100,0.00,BKN,,0.00,WeatherDisplay:10.37,2013-11-12 03:10:00,
2013-11-11 22:12:00,50.8,50.8,30.15,SSW,209,0.0,0.0,100,0.00,BKN,,0.00,WeatherDisplay:10.37,2013-11-12 03:12:00,
2013-11-11 22:13:00,50.8,50.8,30.15,SSW,209,0.0,0.0,100,0.00,BKN,,0.00,WeatherDisplay:10.37,2013-11-12 03:13:00,
2013-11-11 22:14:00,50.8,50.8,30.15,SSW,209,0.0,0.0,100,0.00,BKN,,0.00,WeatherDisplay:10.37,2013-11-12 03:14:00,
2013-11-11 22:15:00,50.8,50.8,30.15,SSW,209,0.0,0.0,100,0.00,BKN,,0.00,WeatherDisplay:10.37,2013-11-12 03:15:00,
2013-11-11 22:17:00,50.8,50.8,30.16,SSW,209,0.0,0.0,100,0.00,BKN,,0.00,WeatherDisplay:10.37,2013-11-12 03:17:00,
2013-11-11 22:18:00,50.8,50.8,30.16,SSW,209,0.0,0.0,100,0.00,BKN,,0.00,WeatherDisplay:10.37,2013-11-12 03:18:00,
2013-11-11 22:19:00,50.8,50.8,30.15,SSW,209,0.0,0.0,100,0.00,BKN,,0.00,WeatherDisplay:10.37,2013-11-12 03:19:00,
2013-11-11 22:20:00,50.8,50.8,30.16,SSW,209,0.0,0.0,100,0.00,BKN,,0.00,WeatherDisplay:10.37,2013-11-12 03:20:00,
2013-11-11 22:22:00,50.8,50.8,30.16,SSW,209,0.0,0.0,100,0.00,BKN,,0.00,WeatherDisplay:10.37,2013-11-12 03:22:00,
2013-11-11 22:23:00,50.8,50.8,30.16,SSW,209,0.0,0.0,100,0.00,BKN,,0.00,WeatherDisplay:10.37,2013-11-12 03:23:00,
2013-11-11 22:25:00,50.8,50.8,30.16,SSW,209,0.0,0.0,100,0.00,BKN,,0.00,WeatherDisplay:10.37,2013-11-12 03:25:00,
2013-11-11 22:28:00,50.8,50.8,30.16,SSW,209,0.0,0.0,100,0.00,BKN,,0.00,WeatherDisplay:10.37,2013-11-12 03:28:00,
2013-11-11 22:30:00,50.7,50.7,30.16,SSW,209,0.0,0.0,100,0.00,BKN,,0.00,WeatherDisplay:10.37,2013-11-12 03:30:00,
2013-11-11 22:31:00,50.7,50.7,30.16,SSW,209,0.0,0.0,100,0.00,OVC,,0.00,WeatherDisplay:10.37,2013-11-12 03:31:00,
2013-11-11 22:33:00,50.7,50.7,30.16,SSW,209,0.0,0.0,100,0.00,OVC,,0.00,WeatherDisplay:10.37,2013-11-12 03:33:00,
2013-11-11 22:35:00,50.6,50.6,30.16,SSW,209,0.0,0.0,100,0.00,OVC,,0.00,WeatherDisplay:10.37,2013-11-12 03:35:00,
2013-11-11 22:36:00,50.6,50.6,30.16,SSW,209,0.0,0.0,100,0.00,OVC,,0.00,WeatherDisplay:10.37,2013-11-12 03:36:00,
2013-11-11 22:38:00,50.6,50.6,30.16,SSW,209,0.0,0.0,100,0.00,OVC,,0.00,WeatherDisplay:10.37,2013-11-12 03:38:00,
2013-11-11 22:40:00,50.5,50.5,30.16,SSW,209,0.0,0.0,100,0.00,OVC,,0.00,WeatherDisplay:10.37,2013-11-12 03:40:00,
2013-11-11 22:42:00,50.5,50.5,30.16,SSW,209,0.0,0.0,100,0.00,OVC,,0.00,WeatherDisplay:10.37,2013-11-12 03:42:00,
2013-11-11 22:43:00,50.4,50.4,30.16,SSW,209,0.0,0.0,100,0.00,OVC,,0.00,WeatherDisplay:10.37,2013-11-12 03:43:00,
2013-11-11 22:44:00,50.4,50.4,30.16,SSW,209,0.0,0.0,100,0.00,OVC,,0.00,WeatherDisplay:10.37,2013-11-12 03:44:00,
2013-11-11 22:45:00,50.4,50.4,30.16,SSW,209,0.0,0.0,100,0.00,OVC,,0.00,WeatherDisplay:10.37,2013-11-12 03:45:00,
2013-11-11 22:47:00,50.3,50.3,30.16,SSW,209,0.0,0.0,100,0.00,OVC,,0.00,WeatherDisplay:10.37,2013-11-12 03:47:00,
2013-11-11 22:48:00,50.3,50.3,30.16,SSW,209,0.0,0.0,100,0.00,OVC,,0.00,WeatherDisplay:10.37,2013-11-12 03:48:00,
2013-11-11 22:49:00,50.3,50.3,30.16,SSW,209,0.0,0.0,100,0.00,OVC,,0.00,WeatherDisplay:10.37,2013-11-12 03:49:00,
2013-11-11 22:50:00,50.2,50.2,30.16,SSW,209,0.0,0.0,100,0.00,OVC,,0.00,WeatherDisplay:10.37,2013-11-12 03:50:00,
2013-11-11 22:51:00,50.2,50.2,30.16,SSW,209,0.0,0.0,100,0.00,OVC,,0.00,WeatherDisplay:10.37,2013-11-12 03:51:00,
2013-11-11 22:52:00,50.2,50.2,30.16,SSW,209,0.0,0.0,100,0.00,OVC,,0.00,WeatherDisplay:10.37,2013-11-12 03:52:00,
2013-11-11 22:53:00,50.2,50.2,30.16,SSW,209,0.0,0.0,100,0.00,OVC,,0.00,WeatherDisplay:10.37,2013-11-12 03:53:00,
2013-11-11 22:54:00,50.2,50.2,30.16,SSW,209,0.0,0.0,100,0.00,OVC,,0.00,WeatherDisplay:10.37,2013-11-12 03:54:00,
2013-11-11 22:55:00,50.2,50.2,30.16,SSW,209,0.0,0.0,100,0.00,OVC,,0.00,WeatherDisplay:10.37,2013-11-12 03:55:00,
2013-11-11 22:56:00,50.2,50.2,30.16,SSW,209,0.0,0.0,100,0.00,OVC,,0.00,WeatherDisplay:10.37,2013-11-12 03:56:00,
2013-11-11 22:58:00,50.2,50.2,30.16,SSW,209,0.0,0.0,100,0.00,OVC,,0.00,WeatherDisplay:10.37,2013-11-12 03:58:00,
2013-11-11 22:59:00,50.1,50.1,30.16,SSW,209,0.0,0.0,100,0.00,OVC,,0.00,WeatherDisplay:10.37,2013-11-12 03:59:00,
2013-11-11 23:01:00,50.0,50.0,30.16,SSW,209,0.0,0.0,100,0.00,OVC,,0.00,WeatherDisplay:10.37,2013-11-12 04:01:00,
2013-11-11 23:03:00,49.9,49.9,30.16,SSW,209,0.0,0.0,100,0.00,OVC,,0.00,WeatherDisplay:10.37,2013-11-12 04:03:00,
2013-11-11 23:04:00,49.9,49.9,30.16,SSW,209,0.0,0.0,100,0.00,OVC,,0.00,WeatherDisplay:10.37,2013-11-12 04:04:00,
2013-11-11 23:06:00,49.8,49.8,30.16,SSW,209,0.0,0.0,100,0.00,OVC,,0.00,WeatherDisplay:10.37,2013-11-12 04:06:00,
2013-11-11 23:08:00,49.6,49.6,30.16,SSW,209,0.0,0.0,100,0.00,OVC,,0.00,WeatherDisplay:10.37,2013-11-12 04:08:00,
2013-11-11 23:09:00,49.6,49.6,30.16,SSW,209,0.0,0.0,100,0.00,OVC,,0.00,WeatherDisplay:10.37,2013-11-12 04:09:00,
2013-11-11 23:10:00,49.7,49.7,30.16,SSW,209,0.0,0.0,100,0.00,OVC,,0.00,WeatherDisplay:10.37,2013-11-12 04:10:00,
2013-11-11 23:11:00,49.7,49.7,30.16,SSW,209,0.0,0.0,100,0.00,OVC,,0.00,WeatherDisplay:10.37,2013-11-12 04:11:00,
2013-11-11 23:12:00,49.8,49.8,30.16,SSW,209,0.0,0.0,100,0.00,OVC,,0.00,WeatherDisplay:10.37,2013-11-12 04:12:00,
2013-11-11 23:13:00,49.8,49.8,30.16,SSW,209,0.0,0.0,100,0.00,OVC,,0.00,WeatherDisplay:10.37,2013-11-12 04:13:00,
2013-11-11 23:15:00,49.8,49.8,30.15,SSW,209,0.0,0.0,100,0.00,OVC,,0.00,WeatherDisplay:10.37,2013-11-12 04:15:00,
2013-11-11 23:16:00,49.9,49.9,30.15,SSW,209,0.0,0.0,100,0.00,OVC,,0.00,WeatherDisplay:10.37,2013-11-12 04:16:00,
2013-11-11 23:17:00,49.9,49.9,30.15,SSW,209,0.0,0.0,100,0.00,OVC,,0.00,WeatherDisplay:10.37,2013-11-12 04:17:00,
2013-11-11 23:18:00,49.9,49.9,30.15,SSW,209,0.0,0.0,100,0.00,OVC,,0.00,WeatherDisplay:10.37,2013-11-12 04:18:00,
2013-11-11 23:20:00,50.0,50.0,30.15,SSW,209,0.0,0.0,100,0.00,OVC,,0.00,WeatherDisplay:10.37,2013-11-12 04:20:00,
2013-11-11 23:22:00,50.0,50.0,30.15,SSW,209,0.0,0.0,100,0.00,OVC,,0.00,WeatherDisplay:10.37,2013-11-12 04:22:00,
2013-11-11 23:24:00,50.0,50.0,29.95,SSW,209,0.0,0.0,100,0.00,OVC,,0.00,WeatherDisplay:10.37,2013-11-12 04:24:00,
2013-11-11 23:25:00,50.5,50.5,30.18,SSW,208,0.0,0.0,100,0.00,OVC,,0.00,WeatherDisplay:10.37,2013-11-12 04:25:00,
2013-11-11 23:26:00,50.0,50.0,30.15,SSW,211,0.0,0.0,100,0.00,OVC,,0.00,WeatherDisplay:10.37,2013-11-12 04:26:00,
2013-11-11 23:27:00,50.9,50.9,30.04,SSW,208,0.0,0.0,100,0.00,OVC,,0.00,WeatherDisplay:10.37,2013-11-12 04:27:00,
2013-11-11 23:29:00,50.9,50.9,30.15,SSW,208,0.0,0.0,100,0.00,OVC,,0.00,WeatherDisplay:10.37,2013-11-12 04:29:00,
2013-11-11 23:31:00,50.1,50.1,30.22,SSW,209,0.0,0.0,100,0.00,OVC,,0.00,WeatherDisplay:10.37,2013-11-12 04:31:00,
2013-11-11 23:32:00,49.6,49.6,29.99,SSW,210,0.1,3.0,100,0.00,OVC,,0.00,WeatherDisplay:10.37,2013-11-12 04:32:00,
2013-11-11 23:35:00,49.0,49.0,30.22,SSW,210,0.0,0.0,100,0.00,OVC,,0.00,WeatherDisplay:10.37,2013-11-12 04:35:00,
2013-11-11 23:36:00,50.9,50.9,30.06,SSW,209,0.0,0.0,100,0.00,OVC,,0.00,WeatherDisplay:10.37,2013-11-12 04:36:00,
2013-11-11 23:37:00,49.0,49.0,29.99,SSW,210,0.0,0.0,100,0.00,OVC,,0.00,WeatherDisplay:10.37,2013-11-12 04:37:00,
2013-11-11 23:38:00,50.0,50.0,30.15,SSW,209,0.0,0.0,100,0.00,OVC,,0.00,WeatherDisplay:10.37,2013-11-12 04:38:00,
2013-11-11 23:41:00,50.0,50.0,30.15,SSW,209,0.0,0.0,100,0.00,OVC,,0.00,WeatherDisplay:10.37,2013-11-12 04:41:00,
2013-11-11 23:42:00,50.0,50.0,30.15,SSW,209,0.0,0.0,100,0.00,OVC,,0.00,WeatherDisplay:10.37,2013-11-12 04:42:00,
2013-11-11 23:44:00,50.0,50.0,30.15,SSW,209,0.0,0.0,100,0.00,OVC,,0.00,WeatherDisplay:10.37,2013-11-12 04:44:00,
2013-11-11 23:46:00,49.9,49.9,30.15,SSW,209,2.4,3.5,100,0.00,OVC,,0.00,WeatherDisplay:10.37,2013-11-12 04:46:00,
2013-11-11 23:47:00,49.9,49.9,30.15,SSW,209,1.7,3.5,100,0.00,OVC,,0.00,WeatherDisplay:10.37,2013-11-12 04:47:00,
2013-11-11 23:48:00,50.0,50.0,30.15,SSW,209,1.8,3.5,100,0.00,OVC,,0.00,WeatherDisplay:10.37,2013-11-12 04:48:00,
2013-11-11 23:49:00,49.9,49.9,30.15,SSW,209,1.6,3.5,100,0.00,OVC,,0.00,WeatherDisplay:10.37,2013-11-12 04:49:00,
2013-11-11 23:51:00,49.9,49.9,30.15,SSW,209,0.0,0.0,100,0.00,OVC,,0.00,WeatherDisplay:10.37,2013-11-12 04:51:00,
2013-11-11 23:52:00,49.9,49.9,30.15,SSW,209,0.0,0.0,100,0.00,OVC,,0.00,WeatherDisplay:10.37,2013-11-12 04:52:00,
2013-11-11 23:53:00,49.7,49.7,30.15,SSW,209,0.0,0.0,100,0.00,OVC,,0.00,WeatherDisplay:10.37,2013-11-12 04:53:00,
2013-11-11 23:54:00,49.7,49.7,30.15,SSW,209,0.0,0.0,100,0.00,OVC,,0.00,WeatherDisplay:10.37,2013-11-12 04:54:00,
2013-11-11 23:55:00,49.7,49.7,30.15,SSW,209,0.0,0.0,100,0.00,OVC,,0.00,WeatherDisplay:10.37,2013-11-12 04:55:00,
2013-11-11 23:56:00,49.7,49.7,30.15,SSW,209,0.0,0.0,100,0.00,OVC,,0.00,WeatherDisplay:10.37,2013-11-12 04:56:00,
2013-11-11 23:57:00,49.8,49.8,30.15,SSW,209,0.0,0.0,100,0.00,OVC,,0.00,WeatherDisplay:10.37,2013-11-12 04:57:00,
2013-11-11 23:58:00,49.9,49.9,30.15,SSW,209,0.0,0.0,100,0.00,OVC,,0.00,WeatherDisplay:10.37,2013-11-12 04:58:00,
2013-11-11 23:59:00,49.9,49.9,30.15,SSW,209,0.0,0.0,100,0.00,OVC,,0.00,WeatherDisplay:10.37,2013-11-12 04:59:00,